Time,TemperatureF,DewpointF,PressureIn,WindDirection,WindDirectionDegrees,WindSpeedMPH,WindSpeedGustMPH,Humidity,HourlyPrecipIn,Conditions,Clouds,dailyrainin,SoftwareType,DateUTC
2013-03-23 00:00:00,30.7,9.8,30.06,NNE,22,0.0,2.6,41,0.00,,BKN090,0.00,VWS V14.01,2013-03-23 05:00:00,
2013-03-23 00:03:00,30.7,9.8,30.05,NE,45,4.0,12.4,41,0.00,,BKN090,0.00,VWS V14.01,2013-03-23 05:03:00,
2013-03-23 00:05:00,30.5,9.6,30.06,NE,45,0.0,4.8,41,0.00,,BKN090,0.00,VWS V14.01,2013-03-23 05:05:00,
2013-03-23 00:06:00,30.7,9.8,30.06,NE,45,4.8,4.8,41,0.00,,BKN090,0.00,VWS V14.01,2013-03-23 05:06:00,
2013-03-23 00:09:00,30.7,9.8,30.06,NE,45,0.0,0.0,41,0.00,,BKN090,0.00,VWS V14.01,2013-03-23 05:09:00,
2013-03-23 00:11:00,30.7,9.8,30.06,NE,45,0.0,5.2,41,0.00,,BKN090,0.00,VWS V14.01,2013-03-23 05:11:00,
2013-03-23 00:12:00,30.7,9.2,30.06,NNE,22,4.4,5.2,40,0.00,,BKN090,0.00,VWS V14.01,2013-03-23 05:12:00,
2013-03-23 00:13:00,30.9,10.0,30.06,NNE,22,10.2,10.2,41,0.00,,BKN090,0.00,VWS V14.01,2013-03-23 05:13:00,
2013-03-23 00:14:00,30.7,9.2,30.06,NE,45,4.8,4.8,40,0.00,,BKN090,0.00,VWS V14.01,2013-03-23 05:14:00,
2013-03-23 00:18:00,30.7,9.2,30.06,NE,45,0.0,8.0,40,0.00,,BKN090,0.00,VWS V14.01,2013-03-23 05:18:00,
2013-03-23 00:19:00,30.5,9.1,30.06,NNE,22,0.0,0.0,40,0.00,,BKN090,0.00,VWS V14.01,2013-03-23 05:19:00,
2013-03-23 00:20:00,30.7,9.2,30.06,NE,45,4.4,4.4,40,0.00,,BKN090,0.00,VWS V14.01,2013-03-23 05:20:00,
2013-03-23 00:23:00,30.7,9.2,30.06,NE,45,0.0,4.8,40,0.00,,BKN090,0.00,VWS V14.01,2013-03-23 05:23:00,
2013-03-23 00:25:00,30.7,9.2,30.06,NE,45,0.0,2.2,40,0.00,,BKN090,0.00,VWS V14.01,2013-03-23 05:25:00,
2013-03-23 00:26:00,30.7,9.2,30.06,NE,45,0.0,0.0,40,0.00,,BKN090,0.00,VWS V14.01,2013-03-23 05:26:00,
2013-03-23 00:27:00,30.7,9.2,30.06,NE,45,3.0,3.0,40,0.00,,BKN090,0.00,VWS V14.01,2013-03-23 05:27:00,
2013-03-23 00:30:00,30.9,9.4,30.06,NE,45,0.0,0.0,40,0.00,,BKN090,0.00,VWS V14.01,2013-03-23 05:30:00,
2013-03-23 00:32:00,30.7,9.2,30.06,NE,45,0.0,0.0,40,0.00,,BKN090,0.00,VWS V14.01,2013-03-23 05:32:00,
2013-03-23 00:33:00,30.7,9.2,30.06,NE,45,0.0,0.0,40,0.00,,BKN090,0.00,VWS V14.01,2013-03-23 05:33:00,
2013-03-23 00:34:00,30.9,9.4,30.06,NE,45,11.0,11.0,40,0.00,,BKN090,0.00,VWS V14.01,2013-03-23 05:34:00,
2013-03-23 00:37:00,30.7,8.7,30.06,NE,45,7.6,7.6,39,0.00,,BKN090,0.00,VWS V14.01,2013-03-23 05:37:00,
2013-03-23 00:38:00,30.9,8.9,30.06,NNE,22,0.0,7.6,39,0.00,,BKN090,0.00,VWS V14.01,2013-03-23 05:38:00,
2013-03-23 00:40:00,30.7,8.7,30.06,NE,45,0.0,3.0,39,0.00,,OVC085,0.00,VWS V14.01,2013-03-23 05:40:00,
2013-03-23 00:42:00,30.7,8.7,30.06,NE,45,0.0,0.0,39,0.00,,OVC085,0.00,VWS V14.01,2013-03-23 05:42:00,
2013-03-23 00:44:00,30.7,8.1,30.06,NNE,22,0.0,0.0,38,0.00,,OVC085,0.00,VWS V14.01,2013-03-23 05:44:00,
2013-03-23 00:46:00,30.7,8.7,30.06,NNE,22,0.0,0.0,39,0.00,,OVC085,0.00,VWS V14.01,2013-03-23 05:46:00,
2013-03-23 00:49:00,30.7,8.1,30.06,NE,45,0.0,0.0,38,0.00,,OVC085,0.00,VWS V14.01,2013-03-23 05:49:00,
2013-03-23 00:50:00,30.5,7.9,30.06,NE,45,0.0,0.0,38,0.00,,OVC085,0.00,VWS V14.01,2013-03-23 05:50:00,
2013-03-23 00:54:00,30.7,7.5,30.06,NE,45,2.2,2.2,37,0.00,,OVC085,0.00,VWS V14.01,2013-03-23 05:54:00,
2013-03-23 00:55:00,30.5,7.9,30.06,NE,45,2.2,2.2,38,0.00,,OVC085,0.00,VWS V14.01,2013-03-23 05:55:00,
2013-03-23 00:56:00,30.7,8.1,30.06,NE,45,0.0,2.2,38,0.00,,OVC085,0.00,VWS V14.01,2013-03-23 05:56:00,
2013-03-23 00:58:00,30.7,8.1,30.06,NE,45,0.0,0.0,38,0.00,,OVC085,0.00,VWS V14.01,2013-03-23 05:58:00,
2013-03-23 00:59:00,30.7,8.1,30.06,South,180,1.6,1.6,38,0.00,,OVC085,0.00,VWS V14.01,2013-03-23 05:59:00,
2013-03-23 01:04:00,30.7,7.5,30.06,NE,45,0.0,0.0,37,0.00,,OVC085,0.00,VWS V14.01,2013-03-23 06:04:00,
2013-03-23 01:05:00,30.7,7.5,30.06,NE,45,0.0,0.0,37,0.00,,OVC085,0.00,VWS V14.01,2013-03-23 06:05:00,
2013-03-23 01:08:00,30.7,7.5,30.07,NE,45,0.0,0.0,37,0.00,,OVC085,0.00,VWS V14.01,2013-03-23 06:08:00,
2013-03-23 01:10:00,30.7,7.5,30.06,NE,45,7.6,7.6,37,0.00,,OVC085,0.00,VWS V14.01,2013-03-23 06:10:00,
2013-03-23 01:12:00,30.7,7.5,30.06,NE,45,6.2,6.2,37,0.00,,OVC085,0.00,VWS V14.01,2013-03-23 06:12:00,
2013-03-23 01:13:00,30.7,7.5,30.07,NE,45,0.0,6.2,37,0.00,,OVC085,0.00,VWS V14.01,2013-03-23 06:13:00,
2013-03-23 01:14:00,30.7,6.9,30.07,NE,45,0.0,0.0,36,0.00,,OVC085,0.00,VWS V14.01,2013-03-23 06:14:00,
2013-03-23 01:16:00,30.7,7.5,30.07,NE,45,2.2,2.2,37,0.00,,OVC085,0.00,VWS V14.01,2013-03-23 06:16:00,
2013-03-23 01:18:00,30.7,7.5,30.07,NE,45,0.0,0.0,37,0.00,,OVC085,0.00,VWS V14.01,2013-03-23 06:18:00,
2013-03-23 01:21:00,30.7,7.5,30.07,NE,45,4.4,5.8,37,0.00,,OVC085,0.00,VWS V14.01,2013-03-23 06:21:00,
2013-03-23 01:22:00,30.7,7.5,30.06,NE,45,8.0,8.0,37,0.00,,OVC085,0.00,VWS V14.01,2013-03-23 06:22:00,
2013-03-23 01:24:00,30.7,7.5,30.06,NE,45,0.0,8.0,37,0.00,,OVC085,0.00,VWS V14.01,2013-03-23 06:24:00,
2013-03-23 01:28:00,30.7,7.5,30.07,NE,45,0.0,0.0,37,0.00,,OVC085,0.00,VWS V14.01,2013-03-23 06:28:00,
2013-03-23 01:29:00,30.7,7.5,30.06,NE,45,0.0,0.0,37,0.00,,OVC085,0.00,VWS V14.01,2013-03-23 06:29:00,
2013-03-23 01:30:00,30.7,7.5,30.06,NE,45,0.0,0.0,37,0.00,,OVC085,0.00,VWS V14.01,2013-03-23 06:30:00,
2013-03-23 01:32:00,30.7,7.5,30.06,NE,45,0.8,1.6,37,0.00,,OVC085,0.00,VWS V14.01,2013-03-23 06:32:00,
2013-03-23 01:35:00,30.7,7.5,30.06,NE,45,0.0,3.4,37,0.00,,OVC085,0.00,VWS V14.01,2013-03-23 06:35:00,
2013-03-23 01:36:00,30.7,6.9,30.06,NE,45,0.0,3.4,36,0.00,,OVC085,0.00,VWS V14.01,2013-03-23 06:36:00,
2013-03-23 01:38:00,30.7,7.5,30.06,NE,45,0.0,0.0,37,0.00,,OVC085,0.00,VWS V14.01,2013-03-23 06:38:00,
2013-03-23 01:39:00,30.7,7.5,30.06,NE,45,0.0,0.0,37,0.00,,OVC085,0.00,VWS V14.01,2013-03-23 06:39:00,
2013-03-23 01:42:00,30.9,7.7,30.06,NE,45,0.0,0.0,37,0.00,,OVC085,0.00,VWS V14.01,2013-03-23 06:42:00,
2013-03-23 01:43:00,30.9,7.7,30.06,NE,45,0.0,0.0,37,0.00,,OVC085,0.00,VWS V14.01,2013-03-23 06:43:00,
2013-03-23 01:44:00,30.9,7.7,30.06,NE,45,0.0,0.0,37,0.00,,OVC085,0.00,VWS V14.01,2013-03-23 06:44:00,
2013-03-23 01:46:00,30.9,7.7,30.06,NE,45,0.0,0.0,37,0.00,,OVC085,0.00,VWS V14.01,2013-03-23 06:46:00,
2013-03-23 01:49:00,30.9,7.7,30.06,NE,45,0.0,0.0,37,0.00,,OVC085,0.00,VWS V14.01,2013-03-23 06:49:00,
2013-03-23 01:51:00,30.9,7.7,30.06,NE,45,0.0,0.0,37,0.00,,OVC085,0.00,VWS V14.01,2013-03-23 06:51:00,
2013-03-23 01:52:00,30.9,7.7,30.06,NE,45,0.0,0.0,37,0.00,,OVC085,0.00,VWS V14.01,2013-03-23 06:52:00,
2013-03-23 01:53:00,30.9,7.7,30.06,NE,45,0.0,0.0,37,0.00,,OVC085,0.00,VWS V14.01,2013-03-23 06:53:00,
2013-03-23 01:56:00,30.9,7.7,30.07,NE,45,0.0,0.0,37,0.00,,OVC085,0.00,VWS V14.01,2013-03-23 06:56:00,
2013-03-23 01:57:00,30.9,7.7,30.07,NE,45,0.0,0.0,37,0.00,,OVC085,0.00,VWS V14.01,2013-03-23 06:57:00,
2013-03-23 01:58:00,31.1,7.9,30.07,NE,45,0.0,0.0,37,0.00,,OVC085,0.00,VWS V14.01,2013-03-23 06:58:00,
2013-03-23 02:00:00,31.1,7.9,30.07,NE,45,0.0,0.0,37,0.00,,OVC085,0.00,VWS V14.01,2013-03-23 07:00:00,
2013-03-23 02:01:00,31.1,7.9,30.07,NE,45,0.0,0.0,37,0.00,,OVC085,0.00,VWS V14.01,2013-03-23 07:01:00,
2013-03-23 02:05:00,31.1,7.9,30.07,NE,45,0.0,0.0,37,0.00,,OVC085,0.00,VWS V14.01,2013-03-23 07:05:00,
2013-03-23 02:06:00,31.1,7.9,30.07,NE,45,0.0,0.0,37,0.00,,OVC085,0.00,VWS V14.01,2013-03-23 07:06:00,
2013-03-23 02:07:00,31.1,7.9,30.07,NE,45,0.0,0.0,37,0.00,,OVC085,0.00,VWS V14.01,2013-03-23 07:07:00,
2013-03-23 02:08:00,31.1,7.9,30.07,NE,45,0.0,0.0,37,0.00,,OVC085,0.00,VWS V14.01,2013-03-23 07:08:00,
2013-03-23 02:12:00,31.1,7.3,30.07,NE,45,0.0,0.0,36,0.00,,OVC085,0.00,VWS V14.01,2013-03-23 07:12:00,
2013-03-23 02:13:00,31.1,7.3,30.07,NE,45,0.0,0.0,36,0.00,,OVC085,0.00,VWS V14.01,2013-03-23 07:13:00,
2013-03-23 02:14:00,31.1,7.3,30.07,NE,45,0.0,0.0,36,0.00,,OVC085,0.00,VWS V14.01,2013-03-23 07:14:00,
2013-03-23 02:16:00,31.1,7.9,30.07,NE,45,0.0,0.0,37,0.00,,OVC085,0.00,VWS V14.01,2013-03-23 07:16:00,
2013-03-23 02:18:00,31.1,7.3,30.06,NE,45,0.0,0.0,36,0.00,,OVC085,0.00,VWS V14.01,2013-03-23 07:18:00,
2013-03-23 02:20:00,31.1,7.9,30.06,NE,45,0.0,0.0,37,0.00,,OVC085,0.00,VWS V14.01,2013-03-23 07:20:00,
2013-03-23 02:22:00,31.1,7.3,30.06,NE,45,0.0,0.0,36,0.00,,OVC085,0.00,VWS V14.01,2013-03-23 07:22:00,
2013-03-23 02:24:00,31.1,7.3,30.06,NE,45,0.0,0.0,36,0.00,,OVC085,0.00,VWS V14.01,2013-03-23 07:24:00,
2013-03-23 02:27:00,31.1,7.3,30.06,NE,45,0.0,0.0,36,0.00,,OVC085,0.00,VWS V14.01,2013-03-23 07:27:00,
2013-03-23 02:30:00,30.9,7.1,30.06,NE,45,0.0,0.0,36,0.00,,OVC085,0.00,VWS V14.01,2013-03-23 07:30:00,
2013-03-23 02:32:00,30.9,7.1,30.06,NE,45,0.0,0.0,36,0.00,,OVC085,0.00,VWS V14.01,2013-03-23 07:32:00,
2013-03-23 02:36:00,30.9,7.1,30.06,NE,45,0.0,0.0,36,0.00,,OVC085,0.00,VWS V14.01,2013-03-23 07:36:00,
2013-03-23 02:40:00,30.9,7.1,30.05,NE,45,0.0,0.0,36,0.00,,OVC085,0.00,VWS V14.01,2013-03-23 07:40:00,
2013-03-23 02:41:00,30.9,7.7,30.06,NE,45,0.0,0.0,37,0.00,,OVC085,0.00,VWS V14.01,2013-03-23 07:41:00,
2013-03-23 02:42:00,30.9,7.1,30.06,NE,45,0.0,0.0,36,0.00,,OVC085,0.00,VWS V14.01,2013-03-23 07:42:00,
2013-03-23 02:47:00,30.9,7.1,30.06,NE,45,3.4,3.4,36,0.00,,OVC085,0.00,VWS V14.01,2013-03-23 07:47:00,
2013-03-23 02:48:00,30.7,6.9,30.06,NE,45,2.2,3.4,36,0.00,,OVC085,0.00,VWS V14.01,2013-03-23 07:48:00,
2013-03-23 02:53:00,30.5,6.1,30.06,NE,45,1.6,1.6,35,0.00,,OVC085,0.00,VWS V14.01,2013-03-23 07:53:00,
2013-03-23 02:56:00,30.5,5.5,30.05,NE,45,0.0,0.0,34,0.00,,OVC085,0.00,VWS V14.01,2013-03-23 07:56:00,
2013-03-23 03:00:00,30.5,6.1,30.05,NE,45,0.0,0.0,35,0.00,,OVC085,0.00,VWS V14.01,2013-03-23 08:00:00,
2013-03-23 03:02:00,30.5,6.1,30.05,NE,45,0.0,0.0,35,0.00,,OVC085,0.00,VWS V14.01,2013-03-23 08:02:00,
2013-03-23 03:06:00,30.5,6.1,30.05,NE,45,0.0,0.0,35,0.00,,OVC085,0.00,VWS V14.01,2013-03-23 08:06:00,
2013-03-23 03:08:00,30.5,6.1,30.05,NE,45,0.0,0.0,35,0.00,,OVC085,0.00,VWS V14.01,2013-03-23 08:08:00,
2013-03-23 03:11:00,30.5,6.1,30.05,NE,45,0.0,0.0,35,0.00,,OVC085,0.00,VWS V14.01,2013-03-23 08:11:00,
2013-03-23 03:13:00,30.5,6.1,30.05,NE,45,0.0,0.0,35,0.00,,OVC085,0.00,VWS V14.01,2013-03-23 08:13:00,
2013-03-23 03:14:00,30.5,6.1,30.05,NE,45,0.0,0.0,35,0.00,,OVC085,0.00,VWS V14.01,2013-03-23 08:14:00,
2013-03-23 03:16:00,30.5,6.1,30.05,NE,45,0.0,0.0,35,0.00,,OVC085,0.00,VWS V14.01,2013-03-23 08:16:00,
2013-03-23 03:19:00,30.5,6.1,30.05,NE,45,0.0,0.0,35,0.00,,OVC085,0.00,VWS V14.01,2013-03-23 08:19:00,
2013-03-23 03:20:00,30.5,6.1,30.04,NE,45,0.0,0.0,35,0.00,,OVC085,0.00,VWS V14.01,2013-03-23 08:20:00,
2013-03-23 03:21:00,30.5,6.1,30.05,NE,45,0.0,0.0,35,0.00,,OVC085,0.00,VWS V14.01,2013-03-23 08:21:00,
2013-03-23 03:22:00,30.5,6.1,30.05,NE,45,0.0,0.0,35,0.00,,OVC085,0.00,VWS V14.01,2013-03-23 08:22:00,
2013-03-23 03:25:00,30.5,6.7,30.05,NE,45,0.0,0.0,36,0.00,,OVC085,0.00,VWS V14.01,2013-03-23 08:25:00,
2013-03-23 03:27:00,30.3,6.6,30.05,NE,45,0.0,0.0,36,0.00,,OVC085,0.00,VWS V14.01,2013-03-23 08:27:00,
2013-03-23 03:28:00,30.3,6.6,30.05,NE,45,0.0,0.0,36,0.00,,OVC085,0.00,VWS V14.01,2013-03-23 08:28:00,
2013-03-23 03:30:00,30.3,6.6,30.05,NE,45,0.0,0.0,36,0.00,,OVC085,0.00,VWS V14.01,2013-03-23 08:30:00,
2013-03-23 03:33:00,30.3,5.9,30.05,NE,45,0.0,0.0,35,0.00,,OVC085,0.00,VWS V14.01,2013-03-23 08:33:00,
2013-03-23 03:34:00,30.3,6.6,30.05,NE,45,0.0,0.0,36,0.00,,OVC085,0.00,VWS V14.01,2013-03-23 08:34:00,
2013-03-23 03:36:00,30.3,6.6,30.05,NE,45,0.0,0.0,36,0.00,,OVC085,0.00,VWS V14.01,2013-03-23 08:36:00,
2013-03-23 03:38:00,30.0,6.3,30.05,NE,45,0.0,0.0,36,0.00,,OVC085,0.00,VWS V14.01,2013-03-23 08:38:00,
2013-03-23 03:40:00,30.0,6.3,30.06,NE,45,0.0,0.0,36,0.00,,OVC085,0.00,VWS V14.01,2013-03-23 08:40:00,
2013-03-23 03:41:00,30.0,6.3,30.06,NE,45,0.0,0.0,36,0.00,,OVC085,0.00,VWS V14.01,2013-03-23 08:41:00,
2013-03-23 03:43:00,29.8,6.1,30.05,NE,45,0.0,0.0,36,0.00,,OVC085,0.00,VWS V14.01,2013-03-23 08:43:00,
2013-03-23 03:46:00,29.6,5.9,30.06,NE,45,0.0,0.0,36,0.00,,OVC085,0.00,VWS V14.01,2013-03-23 08:46:00,
2013-03-23 03:48:00,29.6,5.9,30.06,NE,45,0.0,0.0,36,0.00,,OVC085,0.00,VWS V14.01,2013-03-23 08:48:00,
2013-03-23 03:50:00,29.6,5.9,30.06,NE,45,0.0,0.0,36,0.00,,OVC085,0.00,VWS V14.01,2013-03-23 08:50:00,
2013-03-23 03:52:00,29.6,6.5,30.05,NE,45,0.0,0.0,37,0.00,,OVC085,0.00,VWS V14.01,2013-03-23 08:52:00,
2013-03-23 03:53:00,29.6,5.9,30.05,NE,45,0.0,0.0,36,0.00,,OVC085,0.00,VWS V14.01,2013-03-23 08:53:00,
2013-03-23 03:57:00,29.4,6.4,30.05,NE,45,0.0,0.0,37,0.00,,OVC085,0.00,VWS V14.01,2013-03-23 08:57:00,
2013-03-23 03:58:00,29.4,6.4,30.05,NE,45,0.0,0.0,37,0.00,,OVC085,0.00,VWS V14.01,2013-03-23 08:58:00,
2013-03-23 03:59:00,29.4,6.4,30.05,NE,45,0.0,0.0,37,0.00,,OVC085,0.00,VWS V14.01,2013-03-23 08:59:00,
2013-03-23 04:02:00,29.3,6.3,30.05,NE,45,0.0,0.0,37,0.00,,OVC085,0.00,VWS V14.01,2013-03-23 09:02:00,
2013-03-23 04:05:00,29.1,6.1,30.05,NE,45,0.0,0.0,37,0.00,,OVC085,0.00,VWS V14.01,2013-03-23 09:05:00,
2013-03-23 04:08:00,28.9,5.9,30.05,NE,45,0.0,0.0,37,0.00,,OVC085,0.00,VWS V14.01,2013-03-23 09:08:00,
2013-03-23 04:10:00,28.9,5.9,30.05,NE,45,0.0,0.0,37,0.00,,OVC085,0.00,VWS V14.01,2013-03-23 09:10:00,
2013-03-23 04:15:00,28.9,5.9,30.05,NE,45,0.0,0.0,37,0.00,,OVC085,0.00,VWS V14.01,2013-03-23 09:15:00,
2013-03-23 04:16:00,28.9,6.5,30.05,NE,45,0.0,0.0,38,0.00,,OVC085,0.00,VWS V14.01,2013-03-23 09:16:00,
2013-03-23 04:18:00,28.7,5.7,30.05,NE,45,0.0,0.0,37,0.00,,OVC085,0.00,VWS V14.01,2013-03-23 09:18:00,
2013-03-23 04:21:00,28.7,6.3,30.05,NE,45,0.0,0.0,38,0.00,,OVC085,0.00,VWS V14.01,2013-03-23 09:21:00,
2013-03-23 04:23:00,28.5,5.6,30.05,NE,45,0.0,0.0,37,0.00,,OVC085,0.00,VWS V14.01,2013-03-23 09:23:00,
2013-03-23 04:24:00,28.5,6.1,30.05,NE,45,0.0,0.0,38,0.00,,OVC085,0.00,VWS V14.01,2013-03-23 09:24:00,
2013-03-23 04:26:00,28.4,6.1,30.05,NE,45,0.0,0.0,38,0.00,,OVC085,0.00,VWS V14.01,2013-03-23 09:26:00,
2013-03-23 04:29:00,28.2,5.9,30.05,NE,45,0.0,0.0,38,0.00,,OVC085,0.00,VWS V14.01,2013-03-23 09:29:00,
2013-03-23 04:30:00,28.2,5.9,30.05,NE,45,0.0,0.0,38,0.00,,OVC085,0.00,VWS V14.01,2013-03-23 09:30:00,
2013-03-23 04:31:00,28.0,5.7,30.05,NE,45,0.0,0.0,38,0.00,,OVC085,0.00,VWS V14.01,2013-03-23 09:31:00,
2013-03-23 04:35:00,28.0,6.3,30.05,NE,45,0.0,0.0,39,0.00,,OVC085,0.00,VWS V14.01,2013-03-23 09:35:00,
2013-03-23 04:36:00,27.8,6.1,30.04,NE,45,0.0,0.0,39,0.00,,OVC085,0.00,VWS V14.01,2013-03-23 09:36:00,
2013-03-23 04:37:00,27.8,6.1,30.04,NE,45,0.0,0.0,39,0.00,,OVC085,0.00,VWS V14.01,2013-03-23 09:37:00,
2013-03-23 04:40:00,27.8,6.6,30.05,NE,45,0.0,0.0,40,0.00,,OVC070,0.00,VWS V14.01,2013-03-23 09:40:00,
2013-03-23 04:42:00,27.6,6.4,30.05,NE,45,0.0,0.0,40,0.00,,OVC070,0.00,VWS V14.01,2013-03-23 09:42:00,
2013-03-23 04:44:00,27.8,6.6,30.05,NE,45,0.0,0.0,40,0.00,,OVC070,0.00,VWS V14.01,2013-03-23 09:44:00,
2013-03-23 04:46:00,27.8,6.6,30.05,NE,45,0.0,0.0,40,0.00,,OVC070,0.00,VWS V14.01,2013-03-23 09:46:00,
2013-03-23 04:51:00,27.8,6.6,30.04,NE,45,0.0,0.0,40,0.00,,OVC070,0.00,VWS V14.01,2013-03-23 09:51:00,
2013-03-23 04:52:00,27.8,6.6,30.04,NE,45,0.0,0.0,40,0.00,,OVC070,0.00,VWS V14.01,2013-03-23 09:52:00,
2013-03-23 04:54:00,27.8,7.2,30.04,NE,45,0.0,0.0,41,0.00,,OVC070,0.00,VWS V14.01,2013-03-23 09:54:00,
2013-03-23 04:56:00,27.8,6.6,30.05,NE,45,0.0,0.0,40,0.00,,OVC070,0.00,VWS V14.01,2013-03-23 09:56:00,
2013-03-23 04:58:00,27.8,6.6,30.04,NE,45,0.0,0.0,40,0.00,,OVC070,0.00,VWS V14.01,2013-03-23 09:58:00,
2013-03-23 04:59:00,27.8,6.6,30.04,NE,45,0.0,0.0,40,0.00,,OVC070,0.00,VWS V14.01,2013-03-23 09:59:00,
2013-03-23 05:02:00,27.8,7.2,30.05,NE,45,0.0,0.0,41,0.00,,OVC070,0.00,VWS V14.01,2013-03-23 10:02:00,
2013-03-23 05:04:00,27.6,7.0,30.05,NE,45,0.0,0.0,41,0.00,,OVC070,0.00,VWS V14.01,2013-03-23 10:04:00,
2013-03-23 05:07:00,27.6,7.0,30.05,NE,45,0.0,0.0,41,0.00,,OVC070,0.00,VWS V14.01,2013-03-23 10:07:00,
2013-03-23 05:08:00,27.6,7.0,30.05,NE,45,0.0,0.0,41,0.00,,OVC070,0.00,VWS V14.01,2013-03-23 10:08:00,
2013-03-23 05:10:00,27.5,6.9,30.05,NE,45,0.0,0.0,41,0.00,,OVC070,0.00,VWS V14.01,2013-03-23 10:10:00,
2013-03-23 05:11:00,27.5,6.9,30.05,NE,45,0.0,0.0,41,0.00,,OVC070,0.00,VWS V14.01,2013-03-23 10:11:00,
2013-03-23 05:12:00,27.5,6.9,30.05,NE,45,0.0,0.0,41,0.00,,OVC070,0.00,VWS V14.01,2013-03-23 10:12:00,
2013-03-23 05:16:00,27.5,6.9,30.06,NE,45,0.0,0.0,41,0.00,,OVC070,0.00,VWS V14.01,2013-03-23 10:16:00,
2013-03-23 05:18:00,27.3,7.2,30.06,NE,45,0.0,0.0,42,0.00,,OVC070,0.00,VWS V14.01,2013-03-23 10:18:00,
2013-03-23 05:20:00,27.3,6.7,30.06,NE,45,0.0,0.0,41,0.00,,OVC070,0.00,VWS V14.01,2013-03-23 10:20:00,
2013-03-23 05:22:00,27.1,7.1,30.06,NE,45,0.0,0.0,42,0.00,,OVC070,0.00,VWS V14.01,2013-03-23 10:22:00,
2013-03-23 05:25:00,26.9,6.9,30.06,NE,45,0.0,0.0,42,0.00,,OVC070,0.00,VWS V14.01,2013-03-23 10:25:00,
2013-03-23 05:28:00,26.9,6.9,30.06,NE,45,0.0,0.0,42,0.00,,OVC070,0.00,VWS V14.01,2013-03-23 10:28:00,
2013-03-23 05:30:00,26.9,6.9,30.06,NE,45,0.0,0.0,42,0.00,,OVC070,0.00,VWS V14.01,2013-03-23 10:30:00,
2013-03-23 05:32:00,26.9,7.4,30.06,NE,45,0.0,0.0,43,0.00,,OVC070,0.00,VWS V14.01,2013-03-23 10:32:00,
2013-03-23 05:33:00,26.9,7.4,30.06,NE,45,0.0,0.0,43,0.00,,OVC070,0.00,VWS V14.01,2013-03-23 10:33:00,
2013-03-23 05:34:00,26.9,6.9,30.06,NE,45,0.0,0.0,42,0.00,,OVC070,0.00,VWS V14.01,2013-03-23 10:34:00,
2013-03-23 05:37:00,26.7,7.2,30.06,NE,45,0.0,0.0,43,0.00,,OVC070,0.00,VWS V14.01,2013-03-23 10:37:00,
2013-03-23 05:38:00,26.7,7.2,30.06,NE,45,0.0,0.0,43,0.00,,OVC070,0.00,VWS V14.01,2013-03-23 10:38:00,
2013-03-23 05:42:00,26.7,7.7,30.05,NE,45,0.0,0.0,44,0.00,,OVC065,0.00,VWS V14.01,2013-03-23 10:42:00,
2013-03-23 05:44:00,26.7,7.7,30.06,NE,45,0.0,0.0,44,0.00,,OVC065,0.00,VWS V14.01,2013-03-23 10:44:00,
2013-03-23 05:48:00,26.7,8.2,30.06,NE,45,0.0,0.0,45,0.00,,OVC065,0.00,VWS V14.01,2013-03-23 10:48:00,
2013-03-23 05:50:00,26.7,8.2,30.06,NE,45,0.0,0.0,45,0.00,,OVC065,0.00,VWS V14.01,2013-03-23 10:50:00,
2013-03-23 05:53:00,26.6,8.1,30.06,NE,45,0.0,0.0,45,0.00,,OVC065,0.00,VWS V14.01,2013-03-23 10:53:00,
2013-03-23 05:54:00,26.4,7.9,30.06,NE,45,0.0,0.0,45,0.00,,OVC065,0.00,VWS V14.01,2013-03-23 10:54:00,
2013-03-23 05:55:00,26.4,8.4,30.07,NE,45,0.0,0.0,46,0.00,,OVC065,0.00,VWS V14.01,2013-03-23 10:55:00,
2013-03-23 05:58:00,26.2,8.3,30.06,NE,45,0.0,0.0,46,0.00,,OVC065,0.00,VWS V14.01,2013-03-23 10:58:00,
2013-03-23 06:00:00,26.4,8.4,30.06,NE,45,0.0,0.0,46,0.00,,OVC065,0.00,VWS V14.01,2013-03-23 11:00:00,
2013-03-23 06:01:00,26.2,8.3,30.06,NE,45,0.0,0.0,46,0.00,,OVC065,0.00,VWS V14.01,2013-03-23 11:01:00,
2013-03-23 06:03:00,26.2,8.3,30.06,NE,45,0.0,0.0,46,0.00,,OVC065,0.00,VWS V14.01,2013-03-23 11:03:00,
2013-03-23 06:06:00,26.2,8.3,30.06,NNE,22,0.0,0.0,46,0.00,,OVC065,0.00,VWS V14.01,2013-03-23 11:06:00,
2013-03-23 06:07:00,26.2,8.3,30.06,NNE,22,0.0,0.0,46,0.00,,OVC065,0.00,VWS V14.01,2013-03-23 11:07:00,
2013-03-23 06:08:00,26.2,8.7,30.07,NNE,22,0.0,0.0,47,0.00,,OVC065,0.00,VWS V14.01,2013-03-23 11:08:00,
2013-03-23 06:10:00,26.2,8.7,30.07,NNE,22,0.0,0.0,47,0.00,,OVC065,0.00,VWS V14.01,2013-03-23 11:10:00,
2013-03-23 06:12:00,26.2,8.7,30.07,North,0,0.0,0.0,47,0.00,,OVC065,0.00,VWS V14.01,2013-03-23 11:12:00,
2013-03-23 06:14:00,26.2,8.7,30.07,North,0,2.6,2.6,47,0.00,,OVC065,0.00,VWS V14.01,2013-03-23 11:14:00,
2013-03-23 06:17:00,26.2,9.2,30.07,NNW,338,3.0,3.0,48,0.00,,OVC065,0.00,VWS V14.01,2013-03-23 11:17:00,
2013-03-23 06:18:00,26.2,9.2,30.07,NNE,22,4.8,4.8,48,0.00,,OVC065,0.00,VWS V14.01,2013-03-23 11:18:00,
2013-03-23 06:20:00,26.2,9.2,30.07,North,0,3.4,4.8,48,0.00,,OVC065,0.00,VWS V14.01,2013-03-23 11:20:00,
2013-03-23 06:22:00,26.2,9.2,30.07,NNW,338,0.0,3.4,48,0.00,,OVC065,0.00,VWS V14.01,2013-03-23 11:22:00,
2013-03-23 06:23:00,26.2,9.7,30.07,NNW,338,0.0,0.0,49,0.00,,OVC065,0.00,VWS V14.01,2013-03-23 11:23:00,
2013-03-23 06:26:00,26.2,9.7,30.07,North,0,0.0,0.0,49,0.00,,OVC065,0.00,VWS V14.01,2013-03-23 11:26:00,
2013-03-23 06:28:00,26.2,9.7,30.07,NNE,22,0.0,0.0,49,0.00,,OVC065,0.00,VWS V14.01,2013-03-23 11:28:00,
2013-03-23 06:29:00,26.4,9.8,30.07,NNE,22,0.0,0.0,49,0.00,,OVC065,0.00,VWS V14.01,2013-03-23 11:29:00,
2013-03-23 06:31:00,26.2,10.1,30.07,North,0,0.0,0.0,50,0.00,,OVC065,0.00,VWS V14.01,2013-03-23 11:31:00,
2013-03-23 06:34:00,26.4,10.3,30.07,NNW,338,0.0,0.0,50,0.00,,OVC065,0.00,VWS V14.01,2013-03-23 11:34:00,
2013-03-23 06:36:00,26.2,10.1,30.07,North,0,0.0,0.0,50,0.00,,OVC065,0.00,VWS V14.01,2013-03-23 11:36:00,
2013-03-23 06:38:00,26.2,10.1,30.08,NNE,22,0.0,0.0,50,0.00,,OVC065,0.00,VWS V14.01,2013-03-23 11:38:00,
2013-03-23 06:40:00,26.2,10.1,30.08,North,0,0.0,0.0,50,0.00,,BKN060,0.00,VWS V14.01,2013-03-23 11:40:00,
2013-03-23 06:42:00,26.2,10.1,30.08,North,0,0.0,0.0,50,0.00,,BKN060,0.00,VWS V14.01,2013-03-23 11:42:00,
2013-03-23 06:45:00,26.2,10.1,30.08,North,0,0.0,0.0,50,0.00,,BKN060,0.00,VWS V14.01,2013-03-23 11:45:00,
2013-03-23 06:46:00,26.2,10.1,30.08,North,0,0.0,0.0,50,0.00,,BKN060,0.00,VWS V14.01,2013-03-23 11:46:00,
2013-03-23 06:47:00,26.2,10.1,30.08,North,0,0.0,0.0,50,0.00,,BKN060,0.00,VWS V14.01,2013-03-23 11:47:00,
2013-03-23 06:48:00,26.2,10.6,30.08,North,0,0.0,0.0,51,0.00,,BKN060,0.00,VWS V14.01,2013-03-23 11:48:00,
2013-03-23 06:52:00,26.2,10.6,30.07,North,0,0.0,0.0,51,0.00,,BKN060,0.00,VWS V14.01,2013-03-23 11:52:00,
2013-03-23 06:57:00,26.2,10.6,30.07,North,0,0.0,0.0,51,0.00,,BKN060,0.00,VWS V14.01,2013-03-23 11:57:00,
2013-03-23 06:58:00,26.2,10.6,30.07,North,0,0.0,0.0,51,0.00,,BKN060,0.00,VWS V14.01,2013-03-23 11:58:00,
2013-03-23 07:00:00,26.2,10.6,30.07,North,0,0.0,0.0,51,0.00,,BKN060,0.00,VWS V14.01,2013-03-23 12:00:00,
2013-03-23 07:04:00,26.0,10.4,30.07,NNW,338,0.0,0.0,51,0.00,,BKN060,0.00,VWS V14.01,2013-03-23 12:04:00,
2013-03-23 07:05:00,26.0,10.4,30.07,North,0,0.0,0.0,51,0.00,,BKN060,0.00,VWS V14.01,2013-03-23 12:05:00,
2013-03-23 07:07:00,26.0,10.8,30.07,North,0,0.0,0.0,52,0.00,,BKN060,0.00,VWS V14.01,2013-03-23 12:07:00,
2013-03-23 07:09:00,25.8,10.6,30.08,North,0,0.0,0.0,52,0.00,,BKN060,0.00,VWS V14.01,2013-03-23 12:09:00,
2013-03-23 07:10:00,26.0,10.8,30.08,North,0,0.0,0.0,52,0.00,,BKN060,0.00,VWS V14.01,2013-03-23 12:10:00,
2013-03-23 07:11:00,26.0,10.8,30.08,North,0,0.0,0.0,52,0.00,,BKN060,0.00,VWS V14.01,2013-03-23 12:11:00,
2013-03-23 07:16:00,25.8,10.6,30.08,North,0,0.0,0.0,52,0.00,,BKN060,0.00,VWS V14.01,2013-03-23 12:16:00,
2013-03-23 07:17:00,25.8,10.6,30.08,North,0,0.0,0.0,52,0.00,,BKN060,0.00,VWS V14.01,2013-03-23 12:17:00,
2013-03-23 07:21:00,26.0,10.8,30.08,North,0,0.0,0.0,52,0.00,,BKN060,0.00,VWS V14.01,2013-03-23 12:21:00,
2013-03-23 07:22:00,26.0,11.2,30.08,North,0,0.0,0.0,53,0.00,,BKN060,0.00,VWS V14.01,2013-03-23 12:22:00,
2013-03-23 07:24:00,26.0,11.2,30.08,North,0,0.0,0.0,53,0.00,,BKN060,0.00,VWS V14.01,2013-03-23 12:24:00,
2013-03-23 07:27:00,26.0,11.2,30.08,North,0,0.0,0.0,53,0.00,,BKN060,0.00,VWS V14.01,2013-03-23 12:27:00,
2013-03-23 07:29:00,25.8,11.0,30.08,North,0,0.0,0.0,53,0.00,,BKN060,0.00,VWS V14.01,2013-03-23 12:29:00,
2013-03-23 07:30:00,26.0,11.2,30.08,North,0,0.0,0.0,53,0.00,,BKN060,0.00,VWS V14.01,2013-03-23 12:30:00,
2013-03-23 07:32:00,26.0,11.2,30.08,North,0,0.0,0.0,53,0.00,,BKN060,0.00,VWS V14.01,2013-03-23 12:32:00,
2013-03-23 07:36:00,26.2,11.4,30.09,North,0,0.0,0.0,53,0.00,,BKN060,0.00,VWS V14.01,2013-03-23 12:36:00,
2013-03-23 07:38:00,26.2,11.4,30.09,North,0,0.0,0.0,53,0.00,,BKN060,0.00,VWS V14.01,2013-03-23 12:38:00,
2013-03-23 07:42:00,26.2,11.4,30.09,North,0,0.0,0.0,53,0.00,,BKN060,0.00,VWS V14.01,2013-03-23 12:42:00,
2013-03-23 07:43:00,26.4,11.6,30.09,North,0,0.0,0.0,53,0.00,,BKN060,0.00,VWS V14.01,2013-03-23 12:43:00,
2013-03-23 07:44:00,26.2,11.4,30.09,North,0,0.0,0.0,53,0.00,,BKN060,0.00,VWS V14.01,2013-03-23 12:44:00,
2013-03-23 07:48:00,26.7,12.3,30.10,North,0,0.0,0.0,54,0.00,,BKN060,0.00,VWS V14.01,2013-03-23 12:48:00,
2013-03-23 07:49:00,26.7,12.3,30.10,North,0,0.0,0.0,54,0.00,,BKN060,0.00,VWS V14.01,2013-03-23 12:49:00,
2013-03-23 07:50:00,26.7,12.3,30.10,North,0,0.0,0.0,54,0.00,,FEW060,0.00,VWS V14.01,2013-03-23 12:50:00,
2013-03-23 07:54:00,27.1,12.7,30.10,North,0,0.0,0.0,54,0.00,,FEW060,0.00,VWS V14.01,2013-03-23 12:54:00,
2013-03-23 07:55:00,27.3,12.9,30.10,North,0,0.0,0.0,54,0.00,,FEW060,0.00,VWS V14.01,2013-03-23 12:55:00,
2013-03-23 07:56:00,27.3,12.9,30.10,NE,45,0.0,0.0,54,0.00,,FEW060,0.00,VWS V14.01,2013-03-23 12:56:00,
2013-03-23 08:00:00,27.5,13.1,30.09,NE,45,2.6,2.6,54,0.00,,FEW060,0.00,VWS V14.01,2013-03-23 13:00:00,
2013-03-23 08:01:00,27.8,13.3,30.09,NE,45,0.0,2.6,54,0.00,,FEW060,0.00,VWS V14.01,2013-03-23 13:01:00,
2013-03-23 08:02:00,27.8,13.3,30.09,NE,45,0.0,2.6,54,0.00,,FEW060,0.00,VWS V14.01,2013-03-23 13:02:00,
2013-03-23 08:06:00,28.0,13.1,30.09,NE,45,0.0,4.8,53,0.00,,FEW060,0.00,VWS V14.01,2013-03-23 13:06:00,
2013-03-23 08:07:00,28.0,13.1,30.09,NE,45,0.0,0.0,53,0.00,,FEW060,0.00,VWS V14.01,2013-03-23 13:07:00,
2013-03-23 08:08:00,28.2,13.3,30.10,NE,45,0.0,0.0,53,0.00,,FEW060,0.00,VWS V14.01,2013-03-23 13:08:00,
2013-03-23 08:12:00,28.5,13.6,30.10,NE,45,0.0,0.0,53,0.00,,FEW060,0.00,VWS V14.01,2013-03-23 13:12:00,
2013-03-23 08:14:00,28.5,13.1,30.10,NE,45,3.0,3.0,52,0.00,,FEW060,0.00,VWS V14.01,2013-03-23 13:14:00,
2013-03-23 08:16:00,28.7,13.3,30.10,NE,45,0.0,3.0,52,0.00,,FEW060,0.00,VWS V14.01,2013-03-23 13:16:00,
2013-03-23 08:17:00,28.7,13.3,30.10,NE,45,0.0,0.0,52,0.00,,FEW060,0.00,VWS V14.01,2013-03-23 13:17:00,
2013-03-23 08:18:00,28.9,13.5,30.10,NE,45,2.6,2.6,52,0.00,,FEW060,0.00,VWS V14.01,2013-03-23 13:18:00,
2013-03-23 08:22:00,29.3,13.4,30.10,NNE,22,6.2,6.2,51,0.00,,FEW060,0.00,VWS V14.01,2013-03-23 13:22:00,
2013-03-23 08:23:00,29.3,13.4,30.10,NNE,22,6.2,6.2,51,0.00,,FEW060,0.00,VWS V14.01,2013-03-23 13:23:00,
2013-03-23 08:24:00,29.4,13.5,30.10,NE,45,3.0,6.2,51,0.00,,FEW060,0.00,VWS V14.01,2013-03-23 13:24:00,
2013-03-23 08:25:00,29.4,13.5,30.10,NE,45,3.0,3.0,51,0.00,,FEW060,0.00,VWS V14.01,2013-03-23 13:25:00,
2013-03-23 08:30:00,29.6,13.3,30.10,NNE,22,4.4,5.2,50,0.00,,FEW060,0.00,VWS V14.01,2013-03-23 13:30:00,
2013-03-23 08:32:00,29.6,13.3,30.09,NE,45,0.0,4.4,50,0.00,,FEW060,0.00,VWS V14.01,2013-03-23 13:32:00,
2013-03-23 08:34:00,29.8,13.0,30.09,NE,45,0.4,3.4,49,0.00,,FEW060,0.00,VWS V14.01,2013-03-23 13:34:00,
2013-03-23 08:38:00,30.3,13.4,30.09,NE,45,7.0,7.0,49,0.00,,FEW060,0.00,VWS V14.01,2013-03-23 13:38:00,
2013-03-23 08:40:00,30.3,13.4,30.09,NNE,22,7.0,7.0,49,0.00,,SCT060,0.00,VWS V14.01,2013-03-23 13:40:00,
2013-03-23 08:43:00,30.9,13.5,30.09,NE,45,8.4,8.4,48,0.00,,SCT060,0.00,VWS V14.01,2013-03-23 13:43:00,
2013-03-23 08:45:00,31.1,13.2,30.09,NE,45,3.4,6.6,47,0.00,,SCT060,0.00,VWS V14.01,2013-03-23 13:45:00,
2013-03-23 08:46:00,31.1,13.2,30.09,NE,45,2.2,6.6,47,0.00,,SCT060,0.00,VWS V14.01,2013-03-23 13:46:00,
2013-03-23 08:48:00,31.2,12.8,30.09,NNE,22,9.8,9.8,46,0.00,,SCT060,0.00,VWS V14.01,2013-03-23 13:48:00,
2013-03-23 08:50:00,31.4,13.0,30.09,NE,45,1.6,9.8,46,0.00,,SCT060,0.00,VWS V14.01,2013-03-23 13:50:00,
2013-03-23 08:52:00,31.4,13.0,30.09,NE,45,6.2,6.2,46,0.00,,SCT060,0.00,VWS V14.01,2013-03-23 13:52:00,
2013-03-23 08:54:00,31.6,12.7,30.09,NE,45,5.2,5.2,45,0.00,,SCT060,0.00,VWS V14.01,2013-03-23 13:54:00,
2013-03-23 08:56:00,31.8,12.9,30.09,NNE,22,0.0,0.0,45,0.00,,SCT060,0.00,VWS V14.01,2013-03-23 13:56:00,
2013-03-23 08:57:00,31.8,12.9,30.09,NE,45,0.0,0.0,45,0.00,,SCT060,0.00,VWS V14.01,2013-03-23 13:57:00,
2013-03-23 09:00:00,32.3,13.4,30.09,NE,45,0.0,2.2,45,0.00,,SCT060,0.00,VWS V14.01,2013-03-23 14:00:00,
2013-03-23 09:01:00,32.3,13.4,30.09,NE,45,4.8,4.8,45,0.00,,SCT060,0.00,VWS V14.01,2013-03-23 14:01:00,
2013-03-23 09:03:00,32.3,13.4,30.09,East,90,0.0,7.6,45,0.00,,SCT060,0.00,VWS V14.01,2013-03-23 14:03:00,
2013-03-23 09:05:00,32.7,13.2,30.09,NE,45,0.0,0.0,44,0.00,,SCT060,0.00,VWS V14.01,2013-03-23 14:05:00,
2013-03-23 09:06:00,32.7,13.2,30.09,NE,45,0.0,0.0,44,0.00,,SCT060,0.00,VWS V14.01,2013-03-23 14:06:00,
2013-03-23 09:08:00,32.9,13.4,30.09,North,0,0.0,0.0,44,0.00,,SCT060,0.00,VWS V14.01,2013-03-23 14:08:00,
2013-03-23 09:12:00,33.2,13.1,30.10,NE,45,0.0,0.0,43,0.00,,SCT060,0.00,VWS V14.01,2013-03-23 14:12:00,
2013-03-23 09:13:00,33.2,13.1,30.10,North,0,0.0,0.0,43,0.00,,SCT060,0.00,VWS V14.01,2013-03-23 14:13:00,
2013-03-23 09:17:00,33.8,13.1,30.10,NNE,22,1.2,4.0,42,0.00,,SCT060,0.00,VWS V14.01,2013-03-23 14:17:00,
2013-03-23 09:19:00,33.9,13.2,30.11,NNE,22,5.8,5.8,42,0.00,,SCT060,0.00,VWS V14.01,2013-03-23 14:19:00,
2013-03-23 09:23:00,34.1,12.9,30.11,NNE,22,7.0,7.0,41,0.00,,SCT060,0.00,VWS V14.01,2013-03-23 14:23:00,
2013-03-23 09:24:00,34.1,12.3,30.11,NE,45,0.0,7.0,40,0.00,,SCT060,0.00,VWS V14.01,2013-03-23 14:24:00,
2013-03-23 09:26:00,34.3,12.5,30.11,NE,45,0.0,0.0,40,0.00,,SCT060,0.00,VWS V14.01,2013-03-23 14:26:00,
2013-03-23 09:28:00,34.5,12.1,30.11,NE,45,0.0,0.0,39,0.00,,SCT060,0.00,VWS V14.01,2013-03-23 14:28:00,
2013-03-23 09:30:00,34.7,12.3,30.11,NE,45,0.0,0.0,39,0.00,,SCT060,0.00,VWS V14.01,2013-03-23 14:30:00,
2013-03-23 09:33:00,35.0,11.4,30.11,North,0,0.0,0.0,37,0.00,,SCT060,0.00,VWS V14.01,2013-03-23 14:33:00,
2013-03-23 09:38:00,35.0,8.8,30.11,East,90,0.0,3.4,33,0.00,,SCT060,0.00,VWS V14.01,2013-03-23 14:38:00,
2013-03-23 09:39:00,35.0,8.8,30.11,SE,135,3.0,3.0,33,0.00,,SCT060,0.00,VWS V14.01,2013-03-23 14:39:00,
2013-03-23 09:41:00,35.2,6.9,30.10,NE,45,8.4,8.4,30,0.00,,CLR,0.00,VWS V14.01,2013-03-23 14:41:00,
2013-03-23 09:43:00,35.4,7.8,30.10,NE,45,7.6,7.6,31,0.00,,CLR,0.00,VWS V14.01,2013-03-23 14:43:00,
2013-03-23 09:45:00,35.4,6.3,30.10,NE,45,1.6,1.6,29,0.00,,CLR,0.00,VWS V14.01,2013-03-23 14:45:00,
2013-03-23 09:46:00,35.2,4.6,30.10,NE,45,0.0,1.6,27,0.00,,CLR,0.00,VWS V14.01,2013-03-23 14:46:00,
2013-03-23 09:50:00,35.7,3.3,30.10,NE,45,4.4,4.4,25,0.00,,CLR,0.00,VWS V14.01,2013-03-23 14:50:00,
2013-03-23 09:52:00,35.7,0.6,30.10,NNE,22,2.6,6.2,22,0.00,,CLR,0.00,VWS V14.01,2013-03-23 14:52:00,
2013-03-23 09:55:00,36.1,-2.2,30.10,East,90,0.0,0.0,19,0.00,,CLR,0.00,VWS V14.01,2013-03-23 14:55:00,
2013-03-23 09:57:00,36.3,-2.0,30.10,NNE,22,0.0,0.0,19,0.00,,CLR,0.00,VWS V14.01,2013-03-23 14:57:00,
2013-03-23 09:58:00,36.3,-2.0,30.10,NE,45,3.0,3.0,19,0.00,,CLR,0.00,VWS V14.01,2013-03-23 14:58:00,
2013-03-23 10:02:00,36.3,-2.0,30.10,NNE,22,0.0,0.0,19,0.00,,CLR,0.00,VWS V14.01,2013-03-23 15:02:00,
2013-03-23 10:03:00,36.3,-2.0,30.10,NNE,22,10.2,10.2,19,0.00,,CLR,0.00,VWS V14.01,2013-03-23 15:03:00,
2013-03-23 10:04:00,36.3,-2.0,30.10,NNE,22,0.0,10.2,19,0.00,,CLR,0.00,VWS V14.01,2013-03-23 15:04:00,
2013-03-23 10:08:00,36.5,-1.8,30.10,NE,45,9.2,11.6,19,0.00,,CLR,0.00,VWS V14.01,2013-03-23 15:08:00,
2013-03-23 10:09:00,36.5,-1.8,30.10,NE,45,9.2,9.2,19,0.00,,CLR,0.00,VWS V14.01,2013-03-23 15:09:00,
2013-03-23 10:10:00,36.5,-1.8,30.10,NE,45,15.6,15.6,19,0.00,,CLR,0.00,VWS V14.01,2013-03-23 15:10:00,
2013-03-23 10:11:00,36.5,-1.8,30.10,NE,45,15.6,15.6,19,0.00,,CLR,0.00,VWS V14.01,2013-03-23 15:11:00,
2013-03-23 10:14:00,36.5,-1.8,30.10,NE,45,6.2,6.2,19,0.00,,CLR,0.00,VWS V14.01,2013-03-23 15:14:00,
2013-03-23 10:18:00,37.0,-1.4,30.10,NE,45,9.2,9.2,19,0.00,,CLR,0.00,VWS V14.01,2013-03-23 15:18:00,
2013-03-23 10:19:00,37.0,-1.4,30.10,ENE,68,0.0,9.2,19,0.00,,CLR,0.00,VWS V14.01,2013-03-23 15:19:00,
2013-03-23 10:20:00,37.0,-1.4,30.10,NE,45,2.2,9.2,19,0.00,,CLR,0.00,VWS V14.01,2013-03-23 15:20:00,
2013-03-23 10:22:00,37.5,-1.0,30.10,NNE,22,6.6,6.6,19,0.00,,CLR,0.00,VWS V14.01,2013-03-23 15:22:00,
2013-03-23 10:24:00,37.5,-1.0,30.09,East,90,9.2,9.2,19,0.00,,CLR,0.00,VWS V14.01,2013-03-23 15:24:00,
2013-03-23 10:25:00,37.5,-1.0,30.10,ENE,68,0.0,9.2,19,0.00,,CLR,0.00,VWS V14.01,2013-03-23 15:25:00,
2013-03-23 10:28:00,37.5,-1.0,30.09,ENE,68,8.4,8.4,19,0.00,,CLR,0.00,VWS V14.01,2013-03-23 15:28:00,
2013-03-23 10:30:00,37.2,-1.2,30.09,NNE,22,3.4,3.4,19,0.00,,CLR,0.00,VWS V14.01,2013-03-23 15:30:00,
2013-03-23 10:31:00,37.4,-1.1,30.09,ENE,68,3.4,3.4,19,0.00,,CLR,0.00,VWS V14.01,2013-03-23 15:31:00,
2013-03-23 10:34:00,37.5,-1.0,30.09,NNE,22,0.0,0.0,19,0.00,,CLR,0.00,VWS V14.01,2013-03-23 15:34:00,
2013-03-23 10:38:00,38.1,-0.5,30.09,ENE,68,5.8,13.8,19,0.00,,CLR,0.00,VWS V14.01,2013-03-23 15:38:00,
2013-03-23 10:39:00,38.1,-0.5,30.09,ENE,68,6.2,6.2,19,0.00,,CLR,0.00,VWS V14.01,2013-03-23 15:39:00,
2013-03-23 10:41:00,38.3,-0.3,30.09,SE,135,0.0,0.0,19,0.00,,CLR,0.00,VWS V14.01,2013-03-23 15:41:00,
2013-03-23 10:43:00,38.6,-0.1,30.09,ESE,112,0.0,8.0,19,0.00,,CLR,0.00,VWS V14.01,2013-03-23 15:43:00,
2013-03-23 10:46:00,38.8,0.1,30.09,ESE,112,0.0,9.2,19,0.00,,CLR,0.00,VWS V14.01,2013-03-23 15:46:00,
2013-03-23 10:49:00,38.6,-0.1,30.09,East,90,6.2,7.6,19,0.00,,CLR,0.00,VWS V14.01,2013-03-23 15:49:00,
2013-03-23 10:50:00,38.6,-0.1,30.09,SSE,158,6.6,7.6,19,0.00,,CLR,0.00,VWS V14.01,2013-03-23 15:50:00,
2013-03-23 10:52:00,38.6,-0.1,30.09,East,90,0.0,6.6,19,0.00,,CLR,0.00,VWS V14.01,2013-03-23 15:52:00,
2013-03-23 10:54:00,38.6,-0.1,30.09,SE,135,5.2,5.2,19,0.00,,CLR,0.00,VWS V14.01,2013-03-23 15:54:00,
2013-03-23 10:58:00,38.3,-0.3,30.09,ENE,68,14.2,14.2,19,0.00,,CLR,0.00,VWS V14.01,2013-03-23 15:58:00,
2013-03-23 11:02:00,38.1,-0.5,30.09,North,0,0.0,7.0,19,0.00,,CLR,0.00,VWS V14.01,2013-03-23 16:02:00,
2013-03-23 11:04:00,38.1,-0.5,30.09,NE,45,0.0,12.0,19,0.00,,CLR,0.00,VWS V14.01,2013-03-23 16:04:00,
2013-03-23 11:06:00,38.3,-0.3,30.09,East,90,0.0,3.0,19,0.00,,CLR,0.00,VWS V14.01,2013-03-23 16:06:00,
2013-03-23 11:07:00,38.3,-0.3,30.09,East,90,0.0,0.0,19,0.00,,CLR,0.00,VWS V14.01,2013-03-23 16:07:00,
2013-03-23 11:09:00,38.6,-0.1,30.09,East,90,0.0,0.0,19,0.00,,CLR,0.00,VWS V14.01,2013-03-23 16:09:00,
2013-03-23 11:10:00,38.8,0.1,30.09,SE,135,0.0,4.8,19,0.00,,CLR,0.00,VWS V14.01,2013-03-23 16:10:00,
2013-03-23 11:12:00,38.8,0.1,30.09,ESE,112,0.0,0.0,19,0.00,,CLR,0.00,VWS V14.01,2013-03-23 16:12:00,
2013-03-23 11:15:00,39.9,1.0,30.09,NNE,22,0.0,0.0,19,0.00,,CLR,0.00,VWS V14.01,2013-03-23 16:15:00,
2013-03-23 11:17:00,40.1,1.2,30.09,ESE,112,0.0,0.0,19,0.00,,CLR,0.00,VWS V14.01,2013-03-23 16:17:00,
2013-03-23 11:18:00,40.4,1.4,30.09,East,90,7.0,7.0,19,0.00,,CLR,0.00,VWS V14.01,2013-03-23 16:18:00,
2013-03-23 11:22:00,40.8,1.8,30.09,NE,45,0.0,0.0,19,0.00,,CLR,0.00,VWS V14.01,2013-03-23 16:22:00,
2013-03-23 11:24:00,40.6,1.6,30.09,ENE,68,3.0,3.0,19,0.00,,CLR,0.00,VWS V14.01,2013-03-23 16:24:00,
2013-03-23 11:26:00,41.0,1.9,30.09,NE,45,0.0,3.0,19,0.00,,CLR,0.00,VWS V14.01,2013-03-23 16:26:00,
2013-03-23 11:29:00,41.1,2.0,30.09,ENE,68,8.0,8.0,19,0.00,,CLR,0.00,VWS V14.01,2013-03-23 16:29:00,
2013-03-23 11:32:00,41.1,2.0,30.09,ENE,68,4.8,4.8,19,0.00,,CLR,0.00,VWS V14.01,2013-03-23 16:32:00,
2013-03-23 11:33:00,41.1,2.0,30.09,East,90,6.2,6.2,19,0.00,,CLR,0.00,VWS V14.01,2013-03-23 16:33:00,
2013-03-23 11:36:00,41.0,1.9,30.09,NNE,22,0.0,0.0,19,0.00,,CLR,0.00,VWS V14.01,2013-03-23 16:36:00,
2013-03-23 11:38:00,41.1,2.0,30.09,East,90,8.4,8.4,19,0.00,,CLR,0.00,VWS V14.01,2013-03-23 16:38:00,
2013-03-23 11:41:00,41.5,2.3,30.08,East,90,4.0,10.2,19,0.00,,CLR,0.00,VWS V14.01,2013-03-23 16:41:00,
2013-03-23 11:42:00,41.5,2.3,30.08,East,90,6.2,10.2,19,0.00,,CLR,0.00,VWS V14.01,2013-03-23 16:42:00,
2013-03-23 11:44:00,41.7,2.5,30.08,SE,135,0.0,6.2,19,0.00,,CLR,0.00,VWS V14.01,2013-03-23 16:44:00,
2013-03-23 11:46:00,41.7,2.5,30.08,ENE,68,5.8,5.8,19,0.00,,CLR,0.00,VWS V14.01,2013-03-23 16:46:00,
2013-03-23 11:52:00,40.4,1.4,30.09,East,90,7.6,13.8,19,0.00,,CLR,0.00,VWS V14.01,2013-03-23 16:52:00,
2013-03-23 11:53:00,40.6,1.6,30.09,ENE,68,4.0,7.6,19,0.00,,CLR,0.00,VWS V14.01,2013-03-23 16:53:00,
2013-03-23 11:58:00,40.8,1.8,30.09,ENE,68,5.2,5.2,19,0.00,,CLR,0.00,VWS V14.01,2013-03-23 16:58:00,
2013-03-23 11:59:00,41.1,2.0,30.09,ESE,112,0.0,5.2,19,0.00,,CLR,0.00,VWS V14.01,2013-03-23 16:59:00,
2013-03-23 12:04:00,41.9,2.7,30.09,SE,135,6.6,6.6,19,0.00,,CLR,0.00,VWS V14.01,2013-03-23 17:04:00,
2013-03-23 12:07:00,42.2,2.9,30.09,ENE,68,0.0,0.0,19,0.00,,CLR,0.00,VWS V14.01,2013-03-23 17:07:00,
2013-03-23 12:08:00,42.4,3.1,30.09,East,90,10.2,10.2,19,0.00,,CLR,0.00,VWS V14.01,2013-03-23 17:08:00,
2013-03-23 12:11:00,42.4,3.1,30.09,SE,135,0.0,0.0,19,0.00,,CLR,0.00,VWS V14.01,2013-03-23 17:11:00,
2013-03-23 12:12:00,42.6,3.2,30.09,East,90,11.6,11.6,19,0.00,,CLR,0.00,VWS V14.01,2013-03-23 17:12:00,
2013-03-23 12:16:00,41.9,2.7,30.09,ENE,68,3.4,16.0,19,0.00,,CLR,0.00,VWS V14.01,2013-03-23 17:16:00,
2013-03-23 12:17:00,41.9,2.7,30.09,ENE,68,17.0,17.0,19,0.00,,CLR,0.00,VWS V14.01,2013-03-23 17:17:00,
2013-03-23 12:18:00,41.7,2.5,30.09,ENE,68,0.0,17.0,19,0.00,,CLR,0.00,VWS V14.01,2013-03-23 17:18:00,
2013-03-23 12:22:00,41.7,2.5,30.09,East,90,0.0,0.0,19,0.00,,CLR,0.00,VWS V14.01,2013-03-23 17:22:00,
2013-03-23 12:23:00,41.9,2.7,30.09,East,90,0.0,0.0,19,0.00,,CLR,0.00,VWS V14.01,2013-03-23 17:23:00,
2013-03-23 12:24:00,42.0,2.7,30.09,East,90,1.6,1.6,19,0.00,,CLR,0.00,VWS V14.01,2013-03-23 17:24:00,
2013-03-23 12:27:00,42.8,3.4,30.09,SE,135,0.0,0.0,19,0.00,,CLR,0.00,VWS V14.01,2013-03-23 17:27:00,
2013-03-23 12:28:00,42.9,3.5,30.09,ENE,68,0.0,0.0,19,0.00,,CLR,0.00,VWS V14.01,2013-03-23 17:28:00,
2013-03-23 12:29:00,42.9,3.5,30.09,ENE,68,0.0,0.0,19,0.00,,CLR,0.00,VWS V14.01,2013-03-23 17:29:00,
2013-03-23 12:32:00,43.3,3.8,30.09,NE,45,0.0,0.0,19,0.00,,CLR,0.00,VWS V14.01,2013-03-23 17:32:00,
2013-03-23 12:33:00,43.7,4.2,30.09,East,90,9.2,9.2,19,0.00,,CLR,0.00,VWS V14.01,2013-03-23 17:33:00,
2013-03-23 12:34:00,43.5,4.0,30.09,NE,45,0.0,9.2,19,0.00,,CLR,0.00,VWS V14.01,2013-03-23 17:34:00,
2013-03-23 12:35:00,43.5,4.0,30.09,ENE,68,6.6,6.6,19,0.00,,CLR,0.00,VWS V14.01,2013-03-23 17:35:00,
2013-03-23 12:38:00,42.9,3.5,30.09,NNE,22,0.0,2.6,19,0.00,,CLR,0.00,VWS V14.01,2013-03-23 17:38:00,
2013-03-23 12:40:00,42.4,3.1,30.09,East,90,0.0,0.0,19,0.00,,CLR,0.00,VWS V14.01,2013-03-23 17:40:00,
2013-03-23 12:43:00,42.6,3.2,30.09,ESE,112,0.0,5.2,19,0.00,,CLR,0.00,VWS V14.01,2013-03-23 17:43:00,
2013-03-23 12:44:00,42.4,3.1,30.09,NE,45,4.0,4.0,19,0.00,,CLR,0.00,VWS V14.01,2013-03-23 17:44:00,
2013-03-23 12:46:00,42.4,3.1,30.09,ESE,112,0.0,7.6,19,0.00,,CLR,0.00,VWS V14.01,2013-03-23 17:46:00,
2013-03-23 12:47:00,42.4,3.1,30.09,SSE,158,0.8,0.8,19,0.00,,CLR,0.00,VWS V14.01,2013-03-23 17:47:00,
2013-03-23 12:49:00,42.4,3.1,30.09,East,90,0.0,0.0,19,0.00,,CLR,0.00,VWS V14.01,2013-03-23 17:49:00,
2013-03-23 12:51:00,42.8,3.4,30.09,East,90,2.2,5.8,19,0.00,,CLR,0.00,VWS V14.01,2013-03-23 17:51:00,
2013-03-23 12:54:00,42.8,3.4,30.09,ESE,112,9.8,9.8,19,0.00,,CLR,0.00,VWS V14.01,2013-03-23 17:54:00,
2013-03-23 12:56:00,42.8,3.4,30.09,ENE,68,0.0,0.0,19,0.00,,CLR,0.00,VWS V14.01,2013-03-23 17:56:00,
2013-03-23 12:57:00,42.8,3.4,30.09,ENE,68,2.6,2.6,19,0.00,,CLR,0.00,VWS V14.01,2013-03-23 17:57:00,
2013-03-23 12:59:00,43.1,3.7,30.09,ESE,112,0.0,7.6,19,0.00,,CLR,0.00,VWS V14.01,2013-03-23 17:59:00,
2013-03-23 13:00:00,42.9,3.5,30.09,ENE,68,0.0,7.6,19,0.00,,CLR,0.00,VWS V14.01,2013-03-23 18:00:00,
2013-03-23 13:04:00,43.5,4.0,30.09,North,0,0.0,8.0,19,0.00,,CLR,0.00,VWS V14.01,2013-03-23 18:04:00,
2013-03-23 13:05:00,43.7,4.2,30.09,NNE,22,0.0,0.0,19,0.00,,CLR,0.00,VWS V14.01,2013-03-23 18:05:00,
2013-03-23 13:06:00,43.7,4.2,30.09,NE,45,3.4,3.4,19,0.00,,CLR,0.00,VWS V14.01,2013-03-23 18:06:00,
2013-03-23 13:07:00,44.0,4.4,30.08,East,90,0.0,0.0,19,0.00,,CLR,0.00,VWS V14.01,2013-03-23 18:07:00,
2013-03-23 13:09:00,44.2,4.6,30.09,ENE,68,0.0,0.0,19,0.00,,CLR,0.00,VWS V14.01,2013-03-23 18:09:00,
2013-03-23 13:11:00,44.7,5.0,30.09,North,0,0.0,0.0,19,0.00,,CLR,0.00,VWS V14.01,2013-03-23 18:11:00,
2013-03-23 13:12:00,44.9,5.2,30.08,ENE,68,0.0,0.0,19,0.00,,CLR,0.00,VWS V14.01,2013-03-23 18:12:00,
2013-03-23 13:14:00,45.3,5.5,30.09,ENE,68,0.0,0.0,19,0.00,,CLR,0.00,VWS V14.01,2013-03-23 18:14:00,
2013-03-23 13:15:00,45.5,5.7,30.09,NE,45,0.0,0.0,19,0.00,,CLR,0.00,VWS V14.01,2013-03-23 18:15:00,
2013-03-23 13:16:00,45.6,5.7,30.09,ENE,68,0.0,0.0,19,0.00,,CLR,0.00,VWS V14.01,2013-03-23 18:16:00,
2013-03-23 13:19:00,45.6,5.7,30.09,SE,135,6.6,6.6,19,0.00,,CLR,0.00,VWS V14.01,2013-03-23 18:19:00,
2013-03-23 13:20:00,45.3,5.5,30.09,ENE,68,12.4,12.4,19,0.00,,CLR,0.00,VWS V14.01,2013-03-23 18:20:00,
2013-03-23 13:26:00,43.1,3.7,30.09,NNE,22,0.0,8.8,19,0.00,,CLR,0.00,VWS V14.01,2013-03-23 18:26:00,
2013-03-23 13:27:00,43.1,3.7,30.09,NNE,22,0.0,0.0,19,0.00,,CLR,0.00,VWS V14.01,2013-03-23 18:27:00,
2013-03-23 13:28:00,42.9,3.5,30.09,SE,135,0.0,0.0,19,0.00,,CLR,0.00,VWS V14.01,2013-03-23 18:28:00,
2013-03-23 13:32:00,42.9,3.5,30.08,South,180,0.0,0.0,19,0.00,,CLR,0.00,VWS V14.01,2013-03-23 18:32:00,
2013-03-23 13:34:00,42.4,3.1,30.08,NE,45,0.0,0.0,19,0.00,,CLR,0.00,VWS V14.01,2013-03-23 18:34:00,
2013-03-23 13:36:00,42.2,2.9,30.09,NE,45,0.0,0.0,19,0.00,,CLR,0.00,VWS V14.01,2013-03-23 18:36:00,
2013-03-23 13:37:00,42.4,3.1,30.09,East,90,0.0,0.0,19,0.00,,CLR,0.00,VWS V14.01,2013-03-23 18:37:00,
2013-03-23 13:40:00,42.8,3.4,30.08,ENE,68,0.0,5.8,19,0.00,,CLR,0.00,VWS V14.01,2013-03-23 18:40:00,
2013-03-23 13:41:00,42.9,3.5,30.08,ENE,68,6.6,6.6,19,0.00,,CLR,0.00,VWS V14.01,2013-03-23 18:41:00,
2013-03-23 13:43:00,43.3,3.8,30.09,ENE,68,0.0,0.0,19,0.00,,CLR,0.00,VWS V14.01,2013-03-23 18:43:00,
2013-03-23 13:44:00,43.5,4.0,30.09,SE,135,0.0,0.0,19,0.00,,CLR,0.00,VWS V14.01,2013-03-23 18:44:00,
2013-03-23 13:45:00,43.7,4.2,30.09,SE,135,8.0,8.0,19,0.00,,CLR,0.00,VWS V14.01,2013-03-23 18:45:00,
2013-03-23 13:48:00,44.2,4.6,30.09,ESE,112,4.0,4.0,19,0.00,,CLR,0.00,VWS V14.01,2013-03-23 18:48:00,
2013-03-23 13:50:00,44.6,4.9,30.09,ENE,68,0.0,4.0,19,0.00,,CLR,0.00,VWS V14.01,2013-03-23 18:50:00,
2013-03-23 13:53:00,44.6,4.9,30.09,SE,135,10.2,10.2,19,0.00,,CLR,0.00,VWS V14.01,2013-03-23 18:53:00,
2013-03-23 13:54:00,44.6,4.9,30.08,SSW,202,0.0,10.2,19,0.00,,CLR,0.00,VWS V14.01,2013-03-23 18:54:00,
2013-03-23 13:56:00,44.2,4.6,30.09,SE,135,0.0,0.0,19,0.00,,CLR,0.00,VWS V14.01,2013-03-23 18:56:00,
2013-03-23 13:58:00,44.2,4.6,30.08,ENE,68,2.2,2.2,19,0.00,,CLR,0.00,VWS V14.01,2013-03-23 18:58:00,
2013-03-23 14:00:00,44.0,4.4,30.08,SE,135,0.0,8.0,19,0.00,,CLR,0.00,VWS V14.01,2013-03-23 19:00:00,
2013-03-23 14:04:00,43.7,4.2,30.08,ENE,68,8.4,8.4,19,0.00,,CLR,0.00,VWS V14.01,2013-03-23 19:04:00,
2013-03-23 14:06:00,43.7,4.2,30.08,NE,45,9.8,9.8,19,0.00,,CLR,0.00,VWS V14.01,2013-03-23 19:06:00,
2013-03-23 14:08:00,43.7,4.2,30.08,ENE,68,5.8,5.8,19,0.00,,CLR,0.00,VWS V14.01,2013-03-23 19:08:00,
2013-03-23 14:11:00,44.2,4.6,30.08,NNW,338,0.0,0.0,19,0.00,,CLR,0.00,VWS V14.01,2013-03-23 19:11:00,
2013-03-23 14:12:00,44.7,5.0,30.08,NE,45,0.0,0.0,19,0.00,,CLR,0.00,VWS V14.01,2013-03-23 19:12:00,
2013-03-23 14:15:00,45.1,5.3,30.08,ESE,112,0.0,0.0,19,0.00,,CLR,0.00,VWS V14.01,2013-03-23 19:15:00,
2013-03-23 14:16:00,45.1,5.3,30.07,South,180,0.0,0.0,19,0.00,,CLR,0.00,VWS V14.01,2013-03-23 19:16:00,
2013-03-23 14:17:00,44.9,5.2,30.07,SE,135,0.0,0.0,19,0.00,,CLR,0.00,VWS V14.01,2013-03-23 19:17:00,
2013-03-23 14:20:00,44.0,4.4,30.07,ENE,68,10.6,10.6,19,0.00,,CLR,0.00,VWS V14.01,2013-03-23 19:20:00,
2013-03-23 14:22:00,43.7,4.2,30.07,East,90,0.0,0.0,19,0.00,,CLR,0.00,VWS V14.01,2013-03-23 19:22:00,
2013-03-23 14:23:00,43.7,4.2,30.07,ENE,68,8.4,8.4,19,0.00,,CLR,0.00,VWS V14.01,2013-03-23 19:23:00,
2013-03-23 14:26:00,43.8,4.2,30.07,ENE,68,8.4,8.4,19,0.00,,CLR,0.00,VWS V14.01,2013-03-23 19:26:00,
2013-03-23 14:29:00,44.2,4.6,30.07,ENE,68,8.8,8.8,19,0.00,,CLR,0.00,VWS V14.01,2013-03-23 19:29:00,
2013-03-23 14:30:00,44.2,4.6,30.07,NE,45,0.0,8.8,19,0.00,,CLR,0.00,VWS V14.01,2013-03-23 19:30:00,
2013-03-23 14:32:00,44.4,4.7,30.06,NE,45,0.0,0.0,19,0.00,,CLR,0.00,VWS V14.01,2013-03-23 19:32:00,
2013-03-23 14:34:00,44.7,5.0,30.06,NE,45,0.0,0.0,19,0.00,,CLR,0.00,VWS V14.01,2013-03-23 19:34:00,
2013-03-23 14:35:00,45.1,5.3,30.06,NE,45,0.0,0.0,19,0.00,,CLR,0.00,VWS V14.01,2013-03-23 19:35:00,
2013-03-23 14:38:00,46.0,6.1,30.06,NW,315,0.0,2.6,19,0.00,,CLR,0.00,VWS V14.01,2013-03-23 19:38:00,
2013-03-23 14:40:00,45.8,5.9,30.06,SE,135,12.4,12.4,19,0.00,,CLR,0.00,VWS V14.01,2013-03-23 19:40:00,
2013-03-23 14:42:00,45.8,5.9,30.06,ENE,68,14.6,14.6,19,0.00,,CLR,0.00,VWS V14.01,2013-03-23 19:42:00,
2013-03-23 14:44:00,44.9,5.2,30.06,ENE,68,0.0,14.6,19,0.00,,CLR,0.00,VWS V14.01,2013-03-23 19:44:00,
2013-03-23 14:48:00,44.7,5.0,30.06,ENE,68,0.0,0.0,19,0.00,,CLR,0.00,VWS V14.01,2013-03-23 19:48:00,
2013-03-23 14:50:00,44.9,5.2,30.06,SSE,158,0.0,0.0,19,0.00,,CLR,0.00,VWS V14.01,2013-03-23 19:50:00,
2013-03-23 14:52:00,44.9,5.2,30.06,SE,135,0.0,0.0,19,0.00,,CLR,0.00,VWS V14.01,2013-03-23 19:52:00,
2013-03-23 14:53:00,45.1,5.3,30.06,SSE,158,0.0,0.0,19,0.00,,CLR,0.00,VWS V14.01,2013-03-23 19:53:00,
2013-03-23 14:57:00,45.1,5.3,30.06,SE,135,0.0,2.6,19,0.00,,CLR,0.00,VWS V14.01,2013-03-23 19:57:00,
2013-03-23 14:58:00,45.3,5.5,30.06,East,90,0.0,2.6,19,0.00,,CLR,0.00,VWS V14.01,2013-03-23 19:58:00,
2013-03-23 15:01:00,45.5,5.7,30.06,ENE,68,6.2,6.2,19,0.00,,CLR,0.00,VWS V14.01,2013-03-23 20:01:00,
2013-03-23 15:02:00,45.3,5.5,30.06,ESE,112,0.0,0.0,19,0.00,,CLR,0.00,VWS V14.01,2013-03-23 20:02:00,
2013-03-23 15:04:00,45.3,5.5,30.06,NE,45,4.0,4.0,19,0.00,,CLR,0.00,VWS V14.01,2013-03-23 20:04:00,
2013-03-23 15:06:00,45.1,5.3,30.05,ENE,68,0.0,0.0,19,0.00,,CLR,0.00,VWS V14.01,2013-03-23 20:06:00,
2013-03-23 15:08:00,44.2,4.6,30.05,ENE,68,11.6,11.6,19,0.00,,CLR,0.00,VWS V14.01,2013-03-23 20:08:00,
2013-03-23 15:09:00,44.2,4.6,30.05,NNE,22,3.0,11.6,19,0.00,,CLR,0.00,VWS V14.01,2013-03-23 20:09:00,
2013-03-23 15:11:00,44.0,4.4,30.04,East,90,1.6,4.8,19,0.00,,CLR,0.00,VWS V14.01,2013-03-23 20:11:00,
2013-03-23 15:13:00,43.7,4.2,30.04,East,90,0.0,0.0,19,0.00,,CLR,0.00,VWS V14.01,2013-03-23 20:13:00,
2013-03-23 15:15:00,43.5,4.0,30.04,SE,135,4.8,4.8,19,0.00,,CLR,0.00,VWS V14.01,2013-03-23 20:15:00,
2013-03-23 15:17:00,43.7,4.2,30.04,ESE,112,7.6,7.6,19,0.00,,CLR,0.00,VWS V14.01,2013-03-23 20:17:00,
2013-03-23 15:20:00,44.0,4.4,30.03,East,90,4.4,11.0,19,0.00,,CLR,0.00,VWS V14.01,2013-03-23 20:20:00,
2013-03-23 15:22:00,43.8,4.2,30.03,East,90,0.0,4.4,19,0.00,,CLR,0.00,VWS V14.01,2013-03-23 20:22:00,
2013-03-23 15:24:00,44.0,4.4,30.03,ENE,68,0.0,0.0,19,0.00,,CLR,0.00,VWS V14.01,2013-03-23 20:24:00,
2013-03-23 15:26:00,44.0,4.4,30.03,ENE,68,6.2,6.2,19,0.00,,CLR,0.00,VWS V14.01,2013-03-23 20:26:00,
2013-03-23 15:29:00,44.0,4.4,30.03,NE,45,3.4,3.4,19,0.00,,CLR,0.00,VWS V14.01,2013-03-23 20:29:00,
2013-03-23 15:32:00,44.2,4.6,30.03,ESE,112,1.6,2.2,19,0.00,,CLR,0.00,VWS V14.01,2013-03-23 20:32:00,
2013-03-23 15:34:00,44.2,4.6,30.03,ESE,112,0.0,5.8,19,0.00,,CLR,0.00,VWS V14.01,2013-03-23 20:34:00,
2013-03-23 15:37:00,44.2,4.6,30.03,NNE,22,0.0,0.0,19,0.00,,CLR,0.00,VWS V14.01,2013-03-23 20:37:00,
2013-03-23 15:38:00,44.0,4.4,30.02,East,90,0.0,0.0,19,0.00,,CLR,0.00,VWS V14.01,2013-03-23 20:38:00,
2013-03-23 15:39:00,44.2,4.6,30.02,NE,45,3.4,3.4,19,0.00,,CLR,0.00,VWS V14.01,2013-03-23 20:39:00,
2013-03-23 15:40:00,44.2,4.6,30.02,ENE,68,8.0,8.0,19,0.00,,CLR,0.00,VWS V14.01,2013-03-23 20:40:00,
2013-03-23 15:44:00,44.2,4.6,30.02,ENE,68,4.8,8.4,19,0.00,,CLR,0.00,VWS V14.01,2013-03-23 20:44:00,
2013-03-23 15:48:00,44.6,4.9,30.01,East,90,18.6,18.6,19,0.00,,CLR,0.00,VWS V14.01,2013-03-23 20:48:00,
2013-03-23 15:49:00,44.2,4.6,30.01,NNE,22,0.0,18.6,19,0.00,,CLR,0.00,VWS V14.01,2013-03-23 20:49:00,
2013-03-23 15:51:00,44.2,4.6,30.01,NE,45,9.8,9.8,19,0.00,,CLR,0.00,VWS V14.01,2013-03-23 20:51:00,
2013-03-23 15:52:00,44.2,4.6,30.01,NNE,22,0.0,9.8,19,0.00,,CLR,0.00,VWS V14.01,2013-03-23 20:52:00,
2013-03-23 15:53:00,44.2,4.6,30.01,SSE,158,5.8,5.8,19,0.00,,CLR,0.00,VWS V14.01,2013-03-23 20:53:00,
2013-03-23 15:54:00,44.2,4.6,30.01,East,90,5.2,5.8,19,0.00,,CLR,0.00,VWS V14.01,2013-03-23 20:54:00,
2013-03-23 15:58:00,43.7,4.2,30.01,ESE,112,0.0,4.4,19,0.00,,CLR,0.00,VWS V14.01,2013-03-23 20:58:00,
2013-03-23 16:00:00,43.8,4.2,30.01,NE,45,0.0,1.2,19,0.00,,CLR,0.00,VWS V14.01,2013-03-23 21:00:00,
2013-03-23 16:02:00,43.7,4.2,30.01,SE,135,0.0,0.0,19,0.00,,CLR,0.00,VWS V14.01,2013-03-23 21:02:00,
2013-03-23 16:04:00,43.7,4.2,30.01,East,90,0.0,0.0,19,0.00,,CLR,0.00,VWS V14.01,2013-03-23 21:04:00,
2013-03-23 16:06:00,43.3,3.8,30.01,NE,45,8.0,17.0,19,0.00,,CLR,0.00,VWS V14.01,2013-03-23 21:06:00,
2013-03-23 16:07:00,43.1,3.7,30.01,ENE,68,0.0,8.0,19,0.00,,CLR,0.00,VWS V14.01,2013-03-23 21:07:00,
2013-03-23 16:10:00,43.3,3.8,30.01,ENE,68,8.4,8.4,19,0.00,,CLR,0.00,VWS V14.01,2013-03-23 21:10:00,
2013-03-23 16:11:00,43.3,3.8,30.01,ENE,68,0.0,8.4,19,0.00,,CLR,0.00,VWS V14.01,2013-03-23 21:11:00,
2013-03-23 16:12:00,43.1,3.7,30.01,East,90,6.6,6.6,19,0.00,,CLR,0.00,VWS V14.01,2013-03-23 21:12:00,
2013-03-23 16:13:00,43.1,3.7,30.01,ENE,68,0.0,6.6,19,0.00,,CLR,0.00,VWS V14.01,2013-03-23 21:13:00,
2013-03-23 16:16:00,43.5,4.0,30.01,ENE,68,6.2,6.2,19,0.00,,CLR,0.00,VWS V14.01,2013-03-23 21:16:00,
2013-03-23 16:18:00,43.5,4.0,30.01,NE,45,0.0,6.2,19,0.00,,CLR,0.00,VWS V14.01,2013-03-23 21:18:00,
2013-03-23 16:22:00,44.2,4.6,30.01,NNE,22,8.4,8.4,19,0.00,,CLR,0.00,VWS V14.01,2013-03-23 21:22:00,
2013-03-23 16:23:00,44.0,4.4,30.01,ENE,68,2.2,8.4,19,0.00,,CLR,0.00,VWS V14.01,2013-03-23 21:23:00,
2013-03-23 16:26:00,43.7,4.2,30.01,NNE,22,17.0,17.0,19,0.00,,CLR,0.00,VWS V14.01,2013-03-23 21:26:00,
2013-03-23 16:28:00,43.3,3.8,30.00,NE,45,4.0,17.0,19,0.00,,CLR,0.00,VWS V14.01,2013-03-23 21:28:00,
2013-03-23 16:29:00,43.3,3.8,30.00,NE,45,4.0,4.0,19,0.00,,CLR,0.00,VWS V14.01,2013-03-23 21:29:00,
2013-03-23 16:32:00,43.1,3.7,30.01,NE,45,0.0,12.8,19,0.00,,CLR,0.00,VWS V14.01,2013-03-23 21:32:00,
2013-03-23 16:35:00,42.9,3.5,30.01,NE,45,0.0,0.0,19,0.00,,CLR,0.00,VWS V14.01,2013-03-23 21:35:00,
2013-03-23 16:36:00,42.9,3.5,30.01,NE,45,2.2,2.2,19,0.00,,CLR,0.00,VWS V14.01,2013-03-23 21:36:00,
2013-03-23 16:37:00,42.9,3.5,30.01,NE,45,17.8,17.8,19,0.00,,CLR,0.00,VWS V14.01,2013-03-23 21:37:00,
2013-03-23 16:38:00,42.6,3.2,30.00,NNE,22,4.0,4.0,19,0.00,,CLR,0.00,VWS V14.01,2013-03-23 21:38:00,
2013-03-23 16:42:00,42.4,3.1,30.00,NE,45,5.2,6.2,19,0.00,,CLR,0.00,VWS V14.01,2013-03-23 21:42:00,
2013-03-23 16:43:00,42.4,3.1,30.00,NE,45,0.0,5.2,19,0.00,,CLR,0.00,VWS V14.01,2013-03-23 21:43:00,
2013-03-23 16:45:00,42.4,3.1,30.00,NE,45,7.0,7.0,19,0.00,,CLR,0.00,VWS V14.01,2013-03-23 21:45:00,
2013-03-23 16:48:00,42.2,2.9,30.00,NE,45,0.0,0.0,19,0.00,,CLR,0.00,VWS V14.01,2013-03-23 21:48:00,
2013-03-23 16:49:00,42.0,2.7,30.00,NNE,22,11.6,11.6,19,0.00,,CLR,0.00,VWS V14.01,2013-03-23 21:49:00,
2013-03-23 16:52:00,41.7,2.5,30.00,East,90,0.0,0.0,19,0.00,,CLR,0.00,VWS V14.01,2013-03-23 21:52:00,
2013-03-23 16:54:00,41.7,2.5,29.99,NNE,22,12.4,12.4,19,0.00,,CLR,0.00,VWS V14.01,2013-03-23 21:54:00,
2013-03-23 16:55:00,41.7,2.5,29.99,NE,45,15.6,15.6,19,0.00,,CLR,0.00,VWS V14.01,2013-03-23 21:55:00,
2013-03-23 16:56:00,41.7,2.5,29.99,NE,45,2.6,15.6,19,0.00,,CLR,0.00,VWS V14.01,2013-03-23 21:56:00,
2013-03-23 17:00:00,41.9,2.7,29.99,ENE,68,0.0,4.4,19,0.00,,CLR,0.00,VWS V14.01,2013-03-23 22:00:00,
2013-03-23 17:02:00,42.2,2.9,29.99,SSE,158,12.4,12.4,19,0.00,,CLR,0.00,VWS V14.01,2013-03-23 22:02:00,
2013-03-23 17:05:00,42.4,3.1,29.99,NNE,22,3.0,6.2,19,0.00,,CLR,0.00,VWS V14.01,2013-03-23 22:05:00,
2013-03-23 17:09:00,42.4,3.1,29.99,ESE,112,0.0,0.0,19,0.00,,CLR,0.00,VWS V14.01,2013-03-23 22:09:00,
2013-03-23 17:11:00,42.4,3.1,29.99,NNE,22,11.6,11.6,19,0.00,,CLR,0.00,VWS V14.01,2013-03-23 22:11:00,
2013-03-23 17:12:00,42.4,3.1,29.99,ENE,68,8.4,11.6,19,0.00,,CLR,0.00,VWS V14.01,2013-03-23 22:12:00,
2013-03-23 17:16:00,42.4,3.1,29.99,ENE,68,0.0,8.4,19,0.00,,CLR,0.00,VWS V14.01,2013-03-23 22:16:00,
2013-03-23 17:18:00,42.6,3.2,29.99,NE,45,9.2,9.2,19,0.00,,CLR,0.00,VWS V14.01,2013-03-23 22:18:00,
2013-03-23 17:20:00,42.9,3.5,29.99,ENE,68,0.0,6.2,19,0.00,,CLR,0.00,VWS V14.01,2013-03-23 22:20:00,
2013-03-23 17:23:00,42.8,3.4,29.98,NE,45,0.0,0.0,19,0.00,,CLR,0.00,VWS V14.01,2013-03-23 22:23:00,
2013-03-23 17:24:00,42.4,3.1,29.99,NE,45,8.4,12.8,19,0.00,,CLR,0.00,VWS V14.01,2013-03-23 22:24:00,
2013-03-23 17:26:00,42.2,2.9,29.99,NE,45,9.8,9.8,19,0.00,,CLR,0.00,VWS V14.01,2013-03-23 22:26:00,
2013-03-23 17:30:00,41.9,2.7,29.99,NE,45,11.0,11.0,19,0.00,,CLR,0.00,VWS V14.01,2013-03-23 22:30:00,
2013-03-23 17:31:00,41.9,2.7,29.99,NE,45,11.0,11.0,19,0.00,,CLR,0.00,VWS V14.01,2013-03-23 22:31:00,
2013-03-23 17:34:00,41.1,2.0,29.99,East,90,19.2,19.2,19,0.00,,CLR,0.00,VWS V14.01,2013-03-23 22:34:00,
2013-03-23 17:36:00,41.1,2.0,29.99,NE,45,18.2,18.2,19,0.00,,CLR,0.00,VWS V14.01,2013-03-23 22:36:00,
2013-03-23 17:41:00,40.6,1.6,29.99,NNE,22,0.0,8.8,19,0.00,,CLR,0.00,VWS V14.01,2013-03-23 22:41:00,
2013-03-23 17:45:00,40.6,1.6,29.99,NE,45,0.0,0.0,19,0.00,,CLR,0.00,VWS V14.01,2013-03-23 22:45:00,
2013-03-23 17:46:00,40.6,1.6,29.99,North,0,6.6,6.6,19,0.00,,CLR,0.00,VWS V14.01,2013-03-23 22:46:00,
2013-03-23 17:47:00,40.6,1.6,29.99,NNE,22,5.8,6.6,19,0.00,,CLR,0.00,VWS V14.01,2013-03-23 22:47:00,
2013-03-23 17:48:00,40.6,1.6,29.99,NE,45,4.0,6.6,19,0.00,,CLR,0.00,VWS V14.01,2013-03-23 22:48:00,
2013-03-23 17:51:00,40.4,1.4,30.00,NE,45,19.2,19.2,19,0.00,,CLR,0.00,VWS V14.01,2013-03-23 22:51:00,
2013-03-23 17:52:00,40.4,1.4,30.00,NE,45,6.2,6.2,19,0.00,,CLR,0.00,VWS V14.01,2013-03-23 22:52:00,
2013-03-23 17:54:00,40.1,1.2,30.00,NE,45,5.8,6.2,19,0.00,,CLR,0.00,VWS V14.01,2013-03-23 22:54:00,
2013-03-23 17:57:00,40.1,1.2,30.00,NE,45,0.0,0.0,19,0.00,,CLR,0.00,VWS V14.01,2013-03-23 22:57:00,
2013-03-23 17:58:00,40.1,1.2,30.00,North,0,0.0,0.0,19,0.00,,CLR,0.00,VWS V14.01,2013-03-23 22:58:00,
2013-03-23 18:00:00,39.9,1.0,30.01,NNE,22,2.2,2.2,19,0.00,,CLR,0.00,VWS V14.01,2013-03-23 23:00:00,
2013-03-23 18:04:00,39.9,1.0,30.00,NE,45,4.0,4.0,19,0.00,,CLR,0.00,VWS V14.01,2013-03-23 23:04:00,
2013-03-23 18:06:00,39.9,1.0,30.00,NNE,22,8.0,20.0,19,0.00,,CLR,0.00,VWS V14.01,2013-03-23 23:06:00,
2013-03-23 18:08:00,39.5,0.7,30.00,NE,45,0.0,15.2,19,0.00,,CLR,0.00,VWS V14.01,2013-03-23 23:08:00,
2013-03-23 18:11:00,39.5,0.7,30.01,NE,45,5.8,5.8,19,0.00,,CLR,0.00,VWS V14.01,2013-03-23 23:11:00,
2013-03-23 18:12:00,39.5,0.7,30.00,NE,45,0.0,5.8,19,0.00,,CLR,0.00,VWS V14.01,2013-03-23 23:12:00,
2013-03-23 18:16:00,39.3,0.5,30.01,NNE,22,12.0,12.0,19,0.00,,CLR,0.00,VWS V14.01,2013-03-23 23:16:00,
2013-03-23 18:18:00,39.3,0.5,30.00,NE,45,2.2,2.2,19,0.00,,CLR,0.00,VWS V14.01,2013-03-23 23:18:00,
2013-03-23 18:20:00,39.2,0.4,30.00,NE,45,0.0,0.0,19,0.00,,CLR,0.00,VWS V14.01,2013-03-23 23:20:00,
2013-03-23 18:22:00,39.2,0.4,30.00,NE,45,12.4,12.4,19,0.00,,CLR,0.00,VWS V14.01,2013-03-23 23:22:00,
2013-03-23 18:23:00,39.2,0.4,30.00,North,0,3.0,12.4,19,0.00,,CLR,0.00,VWS V14.01,2013-03-23 23:23:00,
2013-03-23 18:29:00,39.0,0.2,30.00,NNE,22,0.0,0.0,19,0.00,,CLR,0.00,VWS V14.01,2013-03-23 23:29:00,
2013-03-23 18:30:00,38.8,0.1,30.00,NNE,22,2.2,2.6,19,0.00,,CLR,0.00,VWS V14.01,2013-03-23 23:30:00,
2013-03-23 18:31:00,38.8,0.1,30.00,NNE,22,2.2,2.2,19,0.00,,CLR,0.00,VWS V14.01,2013-03-23 23:31:00,
2013-03-23 18:33:00,38.8,0.1,30.00,NE,45,2.6,2.6,19,0.00,,CLR,0.00,VWS V14.01,2013-03-23 23:33:00,
2013-03-23 18:36:00,38.8,0.1,29.99,NE,45,3.0,3.0,19,0.00,,CLR,0.00,VWS V14.01,2013-03-23 23:36:00,
2013-03-23 18:37:00,38.8,0.1,30.00,NE,45,4.4,4.4,19,0.00,,CLR,0.00,VWS V14.01,2013-03-23 23:37:00,
2013-03-23 18:39:00,38.6,-0.1,29.99,NNE,22,0.0,0.0,19,0.00,,CLR,0.00,VWS V14.01,2013-03-23 23:39:00,
2013-03-23 18:42:00,38.4,-0.2,29.99,NNE,22,1.6,4.4,19,0.00,,CLR,0.00,VWS V14.01,2013-03-23 23:42:00,
2013-03-23 18:44:00,38.3,-0.3,29.99,NNE,22,4.4,4.4,19,0.00,,CLR,0.00,VWS V14.01,2013-03-23 23:44:00,
2013-03-23 18:50:00,38.3,-0.3,30.00,NE,45,0.0,0.0,19,0.00,,CLR,0.00,VWS V14.01,2013-03-23 23:50:00,
2013-03-23 18:52:00,38.1,-0.5,30.00,NNE,22,8.0,8.0,19,0.00,,CLR,0.00,VWS V14.01,2013-03-23 23:52:00,
2013-03-23 18:54:00,38.1,-0.5,30.00,NE,45,6.2,8.0,19,0.00,,CLR,0.00,VWS V14.01,2013-03-23 23:54:00,
2013-03-23 18:57:00,37.9,-0.7,30.00,NE,45,3.0,4.8,19,0.00,,CLR,0.00,VWS V14.01,2013-03-23 23:57:00,
2013-03-23 19:00:00,37.7,-0.8,30.00,NE,45,8.8,8.8,19,0.00,,CLR,0.00,VWS V14.01,2013-03-24 00:00:00,
2013-03-23 19:02:00,37.7,-0.8,30.01,NNE,22,3.0,3.0,19,0.00,,CLR,0.00,VWS V14.01,2013-03-24 00:02:00,
2013-03-23 19:04:00,37.7,-0.8,30.00,NNE,22,6.6,6.6,19,0.00,,CLR,0.00,VWS V14.01,2013-03-24 00:04:00,
2013-03-23 19:05:00,37.5,-1.0,30.00,NE,45,0.0,6.6,19,0.00,,CLR,0.00,VWS V14.01,2013-03-24 00:05:00,
2013-03-23 19:09:00,37.4,-1.1,30.01,NNE,22,0.0,12.8,19,0.00,,CLR,0.00,VWS V14.01,2013-03-24 00:09:00,
2013-03-23 19:10:00,37.4,-1.1,30.01,NE,45,0.0,0.0,19,0.00,,CLR,0.00,VWS V14.01,2013-03-24 00:10:00,
2013-03-23 19:12:00,37.4,-1.1,30.01,NE,45,0.0,0.0,19,0.00,,CLR,0.00,VWS V14.01,2013-03-24 00:12:00,
2013-03-23 19:14:00,37.2,-1.2,30.00,NNE,22,0.0,12.8,19,0.00,,CLR,0.00,VWS V14.01,2013-03-24 00:14:00,
2013-03-23 19:16:00,37.0,-1.4,30.00,NE,45,4.8,4.8,19,0.00,,CLR,0.00,VWS V14.01,2013-03-24 00:16:00,
2013-03-23 19:17:00,37.2,-1.2,30.00,NE,45,9.8,9.8,19,0.00,,CLR,0.00,VWS V14.01,2013-03-24 00:17:00,
2013-03-23 19:20:00,37.0,-1.4,30.00,South,180,11.6,11.6,19,0.00,,CLR,0.00,VWS V14.01,2013-03-24 00:20:00,
2013-03-23 19:22:00,37.0,-1.4,30.00,North,0,0.0,12.4,19,0.00,,CLR,0.00,VWS V14.01,2013-03-24 00:22:00,
2013-03-23 19:23:00,36.8,-1.6,30.01,NNE,22,0.0,0.0,19,0.00,,CLR,0.00,VWS V14.01,2013-03-24 00:23:00,
2013-03-23 19:24:00,37.0,-1.4,30.00,NE,45,14.2,14.2,19,0.00,,CLR,0.00,VWS V14.01,2013-03-24 00:24:00,
2013-03-23 19:28:00,36.8,-1.6,30.00,NNE,22,0.0,11.0,19,0.00,,CLR,0.00,VWS V14.01,2013-03-24 00:28:00,
2013-03-23 19:29:00,36.8,-1.6,30.00,NNE,22,0.0,0.0,19,0.00,,CLR,0.00,VWS V14.01,2013-03-24 00:29:00,
2013-03-23 19:30:00,36.8,-1.6,30.00,NE,45,4.0,4.0,19,0.00,,CLR,0.00,VWS V14.01,2013-03-24 00:30:00,
2013-03-23 19:31:00,36.6,-1.8,30.00,NE,45,0.0,0.0,19,0.00,,CLR,0.00,VWS V14.01,2013-03-24 00:31:00,
2013-03-23 19:34:00,36.5,-1.8,30.00,NE,45,8.0,8.0,19,0.00,,CLR,0.00,VWS V14.01,2013-03-24 00:34:00,
2013-03-23 19:39:00,36.5,-1.8,30.01,NE,45,0.0,0.0,19,0.00,,CLR,0.00,VWS V14.01,2013-03-24 00:39:00,
2013-03-23 19:40:00,36.3,-2.0,30.01,NE,45,6.6,6.6,19,0.00,,CLR,0.00,VWS V14.01,2013-03-24 00:40:00,
2013-03-23 19:41:00,36.3,-2.0,30.01,NE,45,6.6,6.6,19,0.00,,CLR,0.00,VWS V14.01,2013-03-24 00:41:00,
2013-03-23 19:44:00,36.5,-1.8,30.01,NE,45,2.6,9.8,19,0.00,,CLR,0.00,VWS V14.01,2013-03-24 00:44:00,
2013-03-23 19:46:00,36.5,-1.8,30.01,NNE,22,5.8,5.8,19,0.00,,CLR,0.00,VWS V14.01,2013-03-24 00:46:00,
2013-03-23 19:50:00,36.3,-2.0,30.01,NNE,22,0.0,0.0,19,0.00,,CLR,0.00,VWS V14.01,2013-03-24 00:50:00,
2013-03-23 19:52:00,36.3,-2.0,30.01,NE,45,0.0,0.0,19,0.00,,CLR,0.00,VWS V14.01,2013-03-24 00:52:00,
2013-03-23 19:55:00,36.3,-2.0,30.01,NE,45,4.0,4.0,19,0.00,,CLR,0.00,VWS V14.01,2013-03-24 00:55:00,
2013-03-23 19:57:00,36.3,-2.0,30.01,NE,45,0.0,0.0,19,0.00,,CLR,0.00,VWS V14.01,2013-03-24 00:57:00,
2013-03-23 19:58:00,36.1,-2.2,30.01,NNE,22,8.4,8.4,19,0.00,,CLR,0.00,VWS V14.01,2013-03-24 00:58:00,
2013-03-23 20:02:00,36.1,-2.2,30.01,NNE,22,0.0,0.0,19,0.00,,CLR,0.00,VWS V14.01,2013-03-24 01:02:00,
2013-03-23 20:04:00,36.1,-2.2,30.01,NE,45,0.0,3.4,19,0.00,,CLR,0.00,VWS V14.01,2013-03-24 01:04:00,
2013-03-23 20:06:00,35.9,-2.3,30.02,NNE,22,0.0,0.0,19,0.00,,CLR,0.00,VWS V14.01,2013-03-24 01:06:00,
2013-03-23 20:07:00,36.1,-2.2,30.02,NE,45,0.0,0.0,19,0.00,,CLR,0.00,VWS V14.01,2013-03-24 01:07:00,
2013-03-23 20:11:00,36.1,-2.2,30.02,NE,45,0.0,8.4,19,0.00,,CLR,0.00,VWS V14.01,2013-03-24 01:11:00,
2013-03-23 20:12:00,35.9,-2.3,30.02,NE,45,0.0,0.0,19,0.00,,CLR,0.00,VWS V14.01,2013-03-24 01:12:00,
2013-03-23 20:14:00,35.9,-2.3,30.02,NE,45,7.6,7.6,19,0.00,,CLR,0.00,VWS V14.01,2013-03-24 01:14:00,
2013-03-23 20:17:00,35.9,-2.3,30.02,NE,45,4.8,4.8,19,0.00,,CLR,0.00,VWS V14.01,2013-03-24 01:17:00,
2013-03-23 20:18:00,35.9,-2.3,30.02,NNE,22,0.0,4.8,19,0.00,,CLR,0.00,VWS V14.01,2013-03-24 01:18:00,
2013-03-23 20:20:00,35.7,-2.5,30.02,NNE,22,0.0,6.6,19,0.00,,CLR,0.00,VWS V14.01,2013-03-24 01:20:00,
2013-03-23 20:22:00,35.9,-2.3,30.02,NE,45,0.0,0.0,19,0.00,,CLR,0.00,VWS V14.01,2013-03-24 01:22:00,
2013-03-23 20:27:00,35.9,-2.3,30.02,NNE,22,2.6,2.6,19,0.00,,CLR,0.00,VWS V14.01,2013-03-24 01:27:00,
2013-03-23 20:28:00,35.7,-2.5,30.02,NE,45,0.0,2.6,19,0.00,,CLR,0.00,VWS V14.01,2013-03-24 01:28:00,
2013-03-23 20:34:00,35.7,-2.5,30.02,NE,45,0.0,0.0,19,0.00,,CLR,0.00,VWS V14.01,2013-03-24 01:34:00,
2013-03-23 20:35:00,35.7,-2.5,30.02,NE,45,0.0,0.0,19,0.00,,CLR,0.00,VWS V14.01,2013-03-24 01:35:00,
2013-03-23 20:36:00,35.7,-2.5,30.02,NE,45,0.0,0.0,19,0.00,,CLR,0.00,VWS V14.01,2013-03-24 01:36:00,
2013-03-23 20:38:00,35.7,-2.5,30.02,NE,45,0.0,0.0,19,0.00,,CLR,0.00,VWS V14.01,2013-03-24 01:38:00,
2013-03-23 20:41:00,35.6,-2.6,30.03,NE,45,4.8,4.8,19,0.00,,SCT110,0.00,VWS V14.01,2013-03-24 01:41:00,
2013-03-23 20:42:00,35.6,-2.6,30.02,NE,45,0.0,4.8,19,0.00,,SCT110,0.00,VWS V14.01,2013-03-24 01:42:00,
2013-03-23 20:43:00,35.4,-2.8,30.02,NE,45,0.0,0.0,19,0.00,,SCT110,0.00,VWS V14.01,2013-03-24 01:43:00,
2013-03-23 20:46:00,35.4,-2.8,30.02,NE,45,0.0,0.0,19,0.00,,SCT110,0.00,VWS V14.01,2013-03-24 01:46:00,
2013-03-23 20:49:00,35.2,-2.9,30.02,NNE,22,2.6,2.6,19,0.00,,SCT110,0.00,VWS V14.01,2013-03-24 01:49:00,
2013-03-23 20:50:00,35.2,-2.9,30.02,NE,45,12.4,12.4,19,0.00,,SCT110,0.00,VWS V14.01,2013-03-24 01:50:00,
2013-03-23 20:51:00,35.2,-2.9,30.02,NE,45,0.0,12.4,19,0.00,,SCT110,0.00,VWS V14.01,2013-03-24 01:51:00,
2013-03-23 20:54:00,35.0,-3.1,30.02,NE,45,5.8,5.8,19,0.00,,SCT110,0.00,VWS V14.01,2013-03-24 01:54:00,
2013-03-23 20:55:00,35.2,-2.9,30.02,NE,45,2.6,5.8,19,0.00,,SCT110,0.00,VWS V14.01,2013-03-24 01:55:00,
2013-03-23 20:56:00,35.2,-2.9,30.02,NE,45,3.0,3.0,19,0.00,,SCT110,0.00,VWS V14.01,2013-03-24 01:56:00,
2013-03-23 20:58:00,35.2,-2.9,30.02,NE,45,1.2,3.0,19,0.00,,SCT110,0.00,VWS V14.01,2013-03-24 01:58:00,
2013-03-23 21:00:00,35.2,-2.9,30.02,NNE,22,0.0,0.0,19,0.00,,SCT110,0.00,VWS V14.01,2013-03-24 02:00:00,
2013-03-23 21:01:00,35.0,-3.1,30.02,NE,45,10.2,10.2,19,0.00,,SCT110,0.00,VWS V14.01,2013-03-24 02:01:00,
2013-03-23 21:03:00,35.0,-3.1,30.03,NE,45,0.0,11.0,19,0.00,,SCT110,0.00,VWS V14.01,2013-03-24 02:03:00,
2013-03-23 21:05:00,35.0,-3.1,30.03,NE,45,0.0,0.0,19,0.00,,SCT110,0.00,VWS V14.01,2013-03-24 02:05:00,
2013-03-23 21:08:00,35.0,-3.1,30.03,NNE,22,1.2,1.2,19,0.00,,SCT110,0.00,VWS V14.01,2013-03-24 02:08:00,
2013-03-23 21:09:00,35.0,-3.1,30.02,NE,45,0.0,1.2,19,0.00,,SCT110,0.00,VWS V14.01,2013-03-24 02:09:00,
2013-03-23 21:10:00,35.0,-3.1,30.02,NE,45,0.0,0.0,19,0.00,,SCT110,0.00,VWS V14.01,2013-03-24 02:10:00,
2013-03-23 21:13:00,34.8,-3.2,30.02,NE,45,0.0,0.0,19,0.00,,SCT110,0.00,VWS V14.01,2013-03-24 02:13:00,
2013-03-23 21:16:00,35.0,-2.0,30.02,NNE,22,4.8,4.8,20,0.00,,SCT110,0.00,VWS V14.01,2013-03-24 02:16:00,
2013-03-23 21:18:00,34.8,-1.1,30.02,NNE,22,0.0,0.0,21,0.00,,SCT110,0.00,VWS V14.01,2013-03-24 02:18:00,
2013-03-23 21:20:00,34.7,-2.3,30.02,NNE,22,0.0,0.0,20,0.00,,SCT110,0.00,VWS V14.01,2013-03-24 02:20:00,
2013-03-23 21:21:00,34.8,-0.2,30.02,NE,45,4.0,4.0,22,0.00,,SCT110,0.00,VWS V14.01,2013-03-24 02:21:00,
2013-03-23 21:22:00,34.8,-3.2,30.02,NE,45,0.0,4.0,19,0.00,,SCT110,0.00,VWS V14.01,2013-03-24 02:22:00,
2013-03-23 21:23:00,34.7,0.7,30.02,NE,45,0.0,0.0,23,0.00,,SCT110,0.00,VWS V14.01,2013-03-24 02:23:00,
2013-03-23 21:26:00,34.7,1.6,30.02,NE,45,0.0,0.0,24,0.00,,SCT110,0.00,VWS V14.01,2013-03-24 02:26:00,
2013-03-23 21:27:00,34.7,1.6,30.02,NE,45,9.8,9.8,24,0.00,,SCT110,0.00,VWS V14.01,2013-03-24 02:27:00,
2013-03-23 21:30:00,34.7,2.5,30.02,NE,45,0.0,0.0,25,0.00,,SCT110,0.00,VWS V14.01,2013-03-24 02:30:00,
2013-03-23 21:32:00,34.7,4.9,30.02,NE,45,4.8,4.8,28,0.00,,SCT110,0.00,VWS V14.01,2013-03-24 02:32:00,
2013-03-23 21:35:00,34.7,4.9,30.02,NE,45,0.0,0.0,28,0.00,,SCT110,0.00,VWS V14.01,2013-03-24 02:35:00,
2013-03-23 21:36:00,34.7,3.3,30.02,NE,45,0.0,0.0,26,0.00,,SCT110,0.00,VWS V14.01,2013-03-24 02:36:00,
2013-03-23 21:38:00,34.7,4.2,30.02,NE,45,0.0,0.0,27,0.00,,SCT110,0.00,VWS V14.01,2013-03-24 02:38:00,
2013-03-23 21:42:00,34.7,6.4,30.02,NE,45,0.0,0.0,30,0.00,,BKN110,0.00,VWS V14.01,2013-03-24 02:42:00,
2013-03-23 21:43:00,34.5,6.3,30.02,NE,45,0.0,0.0,30,0.00,,BKN110,0.00,VWS V14.01,2013-03-24 02:43:00,
2013-03-23 21:44:00,34.7,6.4,30.02,NNE,22,0.0,3.4,30,0.00,,BKN110,0.00,VWS V14.01,2013-03-24 02:44:00,
2013-03-23 21:48:00,34.5,7.7,30.02,NNE,22,0.0,0.0,32,0.00,,BKN110,0.00,VWS V14.01,2013-03-24 02:48:00,
2013-03-23 21:50:00,34.5,6.3,30.02,NE,45,3.4,3.4,30,0.00,,BKN110,0.00,VWS V14.01,2013-03-24 02:50:00,
2013-03-23 21:51:00,34.5,6.3,30.02,NE,45,3.4,3.4,30,0.00,,BKN110,0.00,VWS V14.01,2013-03-24 02:51:00,
2013-03-23 21:53:00,34.5,7.0,30.02,NE,45,0.0,0.0,31,0.00,,BKN110,0.00,VWS V14.01,2013-03-24 02:53:00,
2013-03-23 21:56:00,34.5,7.0,30.02,NE,45,0.0,0.0,31,0.00,,BKN110,0.00,VWS V14.01,2013-03-24 02:56:00,
2013-03-23 22:00:00,34.3,7.5,30.02,NE,45,0.0,0.0,32,0.00,,BKN110,0.00,VWS V14.01,2013-03-24 03:00:00,
2013-03-23 22:02:00,34.3,8.2,30.02,NE,45,0.0,0.0,33,0.00,,BKN110,0.00,VWS V14.01,2013-03-24 03:02:00,
2013-03-23 22:03:00,34.3,7.5,30.02,NE,45,0.0,0.0,32,0.00,,BKN110,0.00,VWS V14.01,2013-03-24 03:03:00,
2013-03-23 22:07:00,34.3,7.5,30.02,NE,45,0.0,0.0,32,0.00,,BKN110,0.00,VWS V14.01,2013-03-24 03:07:00,
2013-03-23 22:08:00,34.3,7.5,30.02,NNW,338,0.0,0.0,32,0.00,,BKN110,0.00,VWS V14.01,2013-03-24 03:08:00,
2013-03-23 22:09:00,34.3,7.5,30.02,NE,45,0.0,0.0,32,0.00,,BKN110,0.00,VWS V14.01,2013-03-24 03:09:00,
2013-03-23 22:10:00,34.3,7.5,30.02,North,0,4.8,4.8,32,0.00,,BKN110,0.00,VWS V14.01,2013-03-24 03:10:00,
2013-03-23 22:12:00,34.3,7.5,30.02,NE,45,5.2,5.2,32,0.00,,BKN110,0.00,VWS V14.01,2013-03-24 03:12:00,
2013-03-23 22:13:00,34.1,7.3,30.02,NE,45,0.0,5.2,32,0.00,,BKN110,0.00,VWS V14.01,2013-03-24 03:13:00,
2013-03-23 22:15:00,34.1,7.3,30.02,North,0,3.4,3.4,32,0.00,,BKN110,0.00,VWS V14.01,2013-03-24 03:15:00,
2013-03-23 22:16:00,34.1,7.3,30.02,NE,45,5.8,5.8,32,0.00,,BKN110,0.00,VWS V14.01,2013-03-24 03:16:00,
2013-03-23 22:19:00,33.9,18.1,30.01,NNE,22,0.0,0.0,52,0.00,,BKN110,0.00,VWS V14.01,2013-03-24 03:19:00,
2013-03-23 22:20:00,34.1,7.3,30.02,NE,45,0.0,0.0,32,0.00,,BKN110,0.00,VWS V14.01,2013-03-24 03:20:00,
2013-03-23 22:21:00,34.1,8.0,30.02,NE,45,0.0,0.0,33,0.00,,BKN110,0.00,VWS V14.01,2013-03-24 03:21:00,
2013-03-23 22:22:00,33.9,7.2,30.02,NE,45,5.8,5.8,32,0.00,,BKN110,0.00,VWS V14.01,2013-03-24 03:22:00,
2013-03-23 22:26:00,33.9,7.2,30.01,NNE,22,0.0,0.0,32,0.00,,BKN110,0.00,VWS V14.01,2013-03-24 03:26:00,
2013-03-23 22:27:00,34.1,7.3,30.02,NE,45,6.6,6.6,32,0.00,,BKN110,0.00,VWS V14.01,2013-03-24 03:27:00,
2013-03-23 22:32:00,33.9,7.2,30.01,NE,45,0.0,0.0,32,0.00,,BKN110,0.00,VWS V14.01,2013-03-24 03:32:00,
2013-03-23 22:33:00,33.9,7.2,30.02,NE,45,0.0,0.0,32,0.00,,BKN110,0.00,VWS V14.01,2013-03-24 03:33:00,
2013-03-23 22:38:00,33.9,7.2,30.02,NNE,22,0.0,5.2,32,0.00,,BKN110,0.00,VWS V14.01,2013-03-24 03:38:00,
2013-03-23 22:39:00,33.9,7.2,30.01,NNE,22,14.6,14.6,32,0.00,,BKN110,0.00,VWS V14.01,2013-03-24 03:39:00,
2013-03-23 22:40:00,33.9,7.2,30.02,NE,45,0.0,14.6,32,0.00,,BKN120,0.00,VWS V14.01,2013-03-24 03:40:00,
2013-03-23 22:44:00,33.9,7.2,30.02,NE,45,0.0,0.0,32,0.00,,BKN120,0.00,VWS V14.01,2013-03-24 03:44:00,
2013-03-23 22:46:00,33.9,6.5,30.02,NE,45,0.0,0.0,31,0.00,,BKN120,0.00,VWS V14.01,2013-03-24 03:46:00,
2013-03-23 22:47:00,33.9,6.5,30.02,NE,45,0.0,0.0,31,0.00,,BKN120,0.00,VWS V14.01,2013-03-24 03:47:00,
2013-03-23 22:50:00,33.9,6.5,30.02,NE,45,0.0,0.0,31,0.00,,BKN120,0.00,VWS V14.01,2013-03-24 03:50:00,
2013-03-23 22:52:00,33.8,6.4,30.02,North,0,0.0,0.0,31,0.00,,BKN120,0.00,VWS V14.01,2013-03-24 03:52:00,
2013-03-23 22:54:00,33.8,6.4,30.02,NNE,22,0.0,0.0,31,0.00,,BKN120,0.00,VWS V14.01,2013-03-24 03:54:00,
2013-03-23 22:57:00,33.8,6.4,30.02,NNE,22,0.0,0.0,31,0.00,,BKN120,0.00,VWS V14.01,2013-03-24 03:57:00,
2013-03-23 23:00:00,33.8,5.7,30.02,NNE,22,0.0,0.0,30,0.00,,BKN120,0.00,VWS V14.01,2013-03-24 04:00:00,
2013-03-23 23:03:00,33.8,7.8,30.02,NE,45,0.0,0.0,33,0.00,,BKN120,0.00,VWS V14.01,2013-03-24 04:03:00,
2013-03-23 23:06:00,33.8,7.8,30.02,NE,45,0.0,2.6,33,0.00,,BKN120,0.00,VWS V14.01,2013-03-24 04:06:00,
2013-03-23 23:11:00,33.6,7.6,30.02,NNE,22,0.0,0.0,33,0.00,,BKN120,0.00,VWS V14.01,2013-03-24 04:11:00,
2013-03-23 23:12:00,33.6,6.9,30.02,NE,45,0.0,0.0,32,0.00,,BKN120,0.00,VWS V14.01,2013-03-24 04:12:00,
2013-03-23 23:16:00,33.6,8.2,30.02,NNE,22,0.0,0.0,34,0.00,,BKN120,0.00,VWS V14.01,2013-03-24 04:16:00,
2013-03-23 23:18:00,33.6,8.2,30.02,NNW,338,0.0,0.0,34,0.00,,BKN120,0.00,VWS V14.01,2013-03-24 04:18:00,
2013-03-23 23:20:00,33.6,8.2,30.02,NNW,338,0.0,0.0,34,0.00,,BKN120,0.00,VWS V14.01,2013-03-24 04:20:00,
2013-03-23 23:22:00,33.6,8.2,30.02,NE,45,0.0,0.0,34,0.00,,BKN120,0.00,VWS V14.01,2013-03-24 04:22:00,
2013-03-23 23:24:00,33.4,8.1,30.02,NE,45,0.0,0.0,34,0.00,,BKN120,0.00,VWS V14.01,2013-03-24 04:24:00,
2013-03-23 23:25:00,33.4,8.1,30.02,NE,45,0.0,0.0,34,0.00,,BKN120,0.00,VWS V14.01,2013-03-24 04:25:00,
2013-03-23 23:27:00,33.6,8.2,30.02,NNE,22,0.0,0.0,34,0.00,,BKN120,0.00,VWS V14.01,2013-03-24 04:27:00,
2013-03-23 23:29:00,33.6,8.9,30.02,NE,45,4.0,4.0,35,0.00,,BKN120,0.00,VWS V14.01,2013-03-24 04:29:00,
2013-03-23 23:30:00,33.4,8.7,30.03,North,0,0.0,4.0,35,0.00,,BKN120,0.00,VWS V14.01,2013-03-24 04:30:00,
2013-03-23 23:34:00,33.4,8.7,30.02,NNE,22,0.0,0.0,35,0.00,,BKN120,0.00,VWS V14.01,2013-03-24 04:34:00,
2013-03-23 23:37:00,33.4,8.7,30.02,NNE,22,1.2,1.2,35,0.00,,BKN120,0.00,VWS V14.01,2013-03-24 04:37:00,
2013-03-23 23:39:00,33.4,8.1,30.02,NE,45,0.0,0.0,34,0.00,,BKN120,0.00,VWS V14.01,2013-03-24 04:39:00,
2013-03-23 23:40:00,33.4,8.1,30.02,NE,45,0.0,0.0,34,0.00,,OVC100,0.00,VWS V14.01,2013-03-24 04:40:00,
2013-03-23 23:41:00,33.4,8.7,30.03,NE,45,0.0,0.0,35,0.00,,OVC100,0.00,VWS V14.01,2013-03-24 04:41:00,
2013-03-23 23:42:00,33.4,8.7,30.03,NE,45,0.0,0.0,35,0.00,,OVC100,0.00,VWS V14.01,2013-03-24 04:42:00,
2013-03-23 23:44:00,33.4,8.7,30.03,NE,45,0.0,0.0,35,0.00,,OVC100,0.00,VWS V14.01,2013-03-24 04:44:00,
2013-03-23 23:46:00,33.4,8.7,30.02,NNE,22,0.0,1.2,35,0.00,,OVC100,0.00,VWS V14.01,2013-03-24 04:46:00,
2013-03-23 23:48:00,33.4,9.3,30.02,NNE,22,0.0,6.6,36,0.00,,OVC100,0.00,VWS V14.01,2013-03-24 04:48:00,
2013-03-23 23:49:00,33.4,9.3,30.02,NNE,22,0.0,0.0,36,0.00,,OVC100,0.00,VWS V14.01,2013-03-24 04:49:00,
2013-03-23 23:52:00,33.4,9.3,30.02,North,0,0.0,0.0,36,0.00,,OVC100,0.00,VWS V14.01,2013-03-24 04:52:00,
2013-03-23 23:53:00,33.4,9.3,30.02,North,0,0.0,0.0,36,0.00,,OVC100,0.00,VWS V14.01,2013-03-24 04:53:00,
2013-03-23 23:54:00,33.2,9.1,30.02,North,0,2.6,2.6,36,0.00,,OVC100,0.00,VWS V14.01,2013-03-24 04:54:00,
2013-03-23 23:56:00,33.4,9.3,30.02,NNE,22,0.0,0.0,36,0.00,,OVC100,0.00,VWS V14.01,2013-03-24 04:56:00,
2013-03-23 23:58:00,33.4,9.9,30.02,NE,45,0.0,0.0,37,0.00,,OVC100,0.00,VWS V14.01,2013-03-24 04:58:00,